<?xml version="1.0" encoding="UTF-8" standalone="no" ?>
<gpx xmlns="http://www.topografix.com/GPX/1/1" xmlns:xsi="http://www.w3.org/2001/XMLSchema-instance" xsi:schemaLocation="http://www.topografix.com/GPX/1/1 http://www.topografix.com/GPX/1/1/gpx.xsd" version="1.1" creator="VisuGPX - https://www.visugpx.com">
  <metadata>
    <name>Ravin de Corb?uf</name>
    <desc><![CDATA[Différents point de vue du Ravin de Corb?uf, des maisons traditionnelles, retour par l'ancienne voie ferrée.]]></desc>
  </metadata>
  <trk>
    <name><![CDATA[26-JUIL-20 12:26:27 PM]]></name>
    <extensions>
      <line xmlns="http://www.topografix.com/GPX/gpx_style/0/2">
        <color>0000FF</color>
        <width>4</width>
      </line>
    </extensions>
    <trkseg>
      <trkpt lat="45.13366" lon="3.99169">
        <ele>677.39</ele>
        <time>2020-07-26T07:25:06Z</time>
      </trkpt>
      <trkpt lat="45.13366" lon="3.99169">
        <ele>677.39</ele>
        <time>2020-07-26T07:25:06Z</time>
      </trkpt>
      <trkpt lat="45.13371" lon="3.99172">
        <ele>677.87</ele>
        <time>2020-07-26T07:25:33Z</time>
      </trkpt>
      <trkpt lat="45.13384" lon="3.99176">
        <ele>677.39</ele>
        <time>2020-07-26T07:25:48Z</time>
      </trkpt>
      <trkpt lat="45.13398" lon="3.99175">
        <ele>676.91</ele>
        <time>2020-07-26T07:26:00Z</time>
      </trkpt>
      <trkpt lat="45.13399" lon="3.99175">
        <ele>676.91</ele>
        <time>2020-07-26T07:26:01Z</time>
      </trkpt>
      <trkpt lat="45.13404" lon="3.99178">
        <ele>677.39</ele>
        <time>2020-07-26T07:26:05Z</time>
      </trkpt>
      <trkpt lat="45.13416" lon="3.992">
        <ele>678.35</ele>
        <time>2020-07-26T07:26:21Z</time>
      </trkpt>
      <trkpt lat="45.13427" lon="3.9922">
        <ele>680.27</ele>
        <time>2020-07-26T07:26:36Z</time>
      </trkpt>
      <trkpt lat="45.13433" lon="3.99231">
        <ele>681.23</ele>
        <time>2020-07-26T07:26:45Z</time>
      </trkpt>
      <trkpt lat="45.1344" lon="3.99243">
        <ele>683.15</ele>
        <time>2020-07-26T07:26:55Z</time>
      </trkpt>
      <trkpt lat="45.13448" lon="3.99258">
        <ele>684.6</ele>
        <time>2020-07-26T07:27:09Z</time>
      </trkpt>
      <trkpt lat="45.13448" lon="3.99259">
        <ele>684.6</ele>
        <time>2020-07-26T07:27:10Z</time>
      </trkpt>
      <trkpt lat="45.13453" lon="3.9927">
        <ele>686.04</ele>
        <time>2020-07-26T07:27:23Z</time>
      </trkpt>
      <trkpt lat="45.13455" lon="3.99273">
        <ele>686.04</ele>
        <time>2020-07-26T07:27:26Z</time>
      </trkpt>
      <trkpt lat="45.13462" lon="3.99285">
        <ele>687.48</ele>
        <time>2020-07-26T07:27:36Z</time>
      </trkpt>
      <trkpt lat="45.13471" lon="3.99302">
        <ele>689.4</ele>
        <time>2020-07-26T07:27:51Z</time>
      </trkpt>
      <trkpt lat="45.1348" lon="3.99317">
        <ele>691.33</ele>
        <time>2020-07-26T07:28:06Z</time>
      </trkpt>
      <trkpt lat="45.13483" lon="3.99324">
        <ele>691.81</ele>
        <time>2020-07-26T07:28:18Z</time>
      </trkpt>
      <trkpt lat="45.13492" lon="3.9934">
        <ele>693.25</ele>
        <time>2020-07-26T07:28:34Z</time>
      </trkpt>
      <trkpt lat="45.13501" lon="3.99353">
        <ele>695.17</ele>
        <time>2020-07-26T07:28:48Z</time>
      </trkpt>
      <trkpt lat="45.13505" lon="3.99363">
        <ele>697.09</ele>
        <time>2020-07-26T07:29:02Z</time>
      </trkpt>
      <trkpt lat="45.13505" lon="3.99364">
        <ele>697.09</ele>
        <time>2020-07-26T07:29:05Z</time>
      </trkpt>
      <trkpt lat="45.13516" lon="3.99386">
        <ele>699.02</ele>
        <time>2020-07-26T07:29:20Z</time>
      </trkpt>
      <trkpt lat="45.13524" lon="3.99404">
        <ele>700.94</ele>
        <time>2020-07-26T07:29:36Z</time>
      </trkpt>
      <trkpt lat="45.13532" lon="3.9942">
        <ele>702.38</ele>
        <time>2020-07-26T07:29:54Z</time>
      </trkpt>
      <trkpt lat="45.13541" lon="3.99439">
        <ele>704.3</ele>
        <time>2020-07-26T07:30:11Z</time>
      </trkpt>
      <trkpt lat="45.13541" lon="3.9946">
        <ele>706.23</ele>
        <time>2020-07-26T07:30:29Z</time>
      </trkpt>
      <trkpt lat="45.1354" lon="3.99461">
        <ele>705.75</ele>
        <time>2020-07-26T07:30:30Z</time>
      </trkpt>
      <trkpt lat="45.13533" lon="3.99481">
        <ele>707.67</ele>
        <time>2020-07-26T07:30:46Z</time>
      </trkpt>
      <trkpt lat="45.13526" lon="3.99498">
        <ele>709.11</ele>
        <time>2020-07-26T07:30:59Z</time>
      </trkpt>
      <trkpt lat="45.13528" lon="3.99518">
        <ele>710.07</ele>
        <time>2020-07-26T07:31:13Z</time>
      </trkpt>
      <trkpt lat="45.13532" lon="3.99529">
        <ele>710.55</ele>
        <time>2020-07-26T07:31:21Z</time>
      </trkpt>
      <trkpt lat="45.13536" lon="3.99555">
        <ele>711.99</ele>
        <time>2020-07-26T07:31:38Z</time>
      </trkpt>
      <trkpt lat="45.1354" lon="3.99575">
        <ele>713.44</ele>
        <time>2020-07-26T07:31:52Z</time>
      </trkpt>
      <trkpt lat="45.13544" lon="3.99601">
        <ele>714.88</ele>
        <time>2020-07-26T07:32:10Z</time>
      </trkpt>
      <trkpt lat="45.13547" lon="3.99624">
        <ele>716.32</ele>
        <time>2020-07-26T07:32:25Z</time>
      </trkpt>
      <trkpt lat="45.13547" lon="3.99626">
        <ele>715.36</ele>
        <time>2020-07-26T07:32:26Z</time>
      </trkpt>
      <trkpt lat="45.13549" lon="3.99648">
        <ele>715.84</ele>
        <time>2020-07-26T07:32:38Z</time>
      </trkpt>
      <trkpt lat="45.13554" lon="3.99676">
        <ele>716.32</ele>
        <time>2020-07-26T07:32:56Z</time>
      </trkpt>
      <trkpt lat="45.13555" lon="3.99707">
        <ele>716.8</ele>
        <time>2020-07-26T07:33:15Z</time>
      </trkpt>
      <trkpt lat="45.13554" lon="3.99732">
        <ele>717.28</ele>
        <time>2020-07-26T07:33:30Z</time>
      </trkpt>
      <trkpt lat="45.13549" lon="3.99751">
        <ele>719.2</ele>
        <time>2020-07-26T07:33:45Z</time>
      </trkpt>
      <trkpt lat="45.13547" lon="3.99773">
        <ele>721.13</ele>
        <time>2020-07-26T07:34:00Z</time>
      </trkpt>
      <trkpt lat="45.13545" lon="3.99787">
        <ele>721.61</ele>
        <time>2020-07-26T07:34:17Z</time>
      </trkpt>
      <trkpt lat="45.13543" lon="3.99802">
        <ele>723.53</ele>
        <time>2020-07-26T07:34:39Z</time>
      </trkpt>
      <trkpt lat="45.13539" lon="3.99815">
        <ele>724.97</ele>
        <time>2020-07-26T07:34:50Z</time>
      </trkpt>
      <trkpt lat="45.1353" lon="3.99843">
        <ele>726.89</ele>
        <time>2020-07-26T07:35:11Z</time>
      </trkpt>
      <trkpt lat="45.13524" lon="3.99853">
        <ele>728.34</ele>
        <time>2020-07-26T07:35:19Z</time>
      </trkpt>
      <trkpt lat="45.13508" lon="3.99871">
        <ele>729.3</ele>
        <time>2020-07-26T07:35:37Z</time>
      </trkpt>
      <trkpt lat="45.13509" lon="3.99871">
        <ele>729.3</ele>
        <time>2020-07-26T07:35:51Z</time>
      </trkpt>
      <trkpt lat="45.13509" lon="3.99871">
        <ele>728.82</ele>
        <time>2020-07-26T07:36:13Z</time>
      </trkpt>
      <trkpt lat="45.13502" lon="3.99874">
        <ele>728.82</ele>
        <time>2020-07-26T07:36:22Z</time>
      </trkpt>
      <trkpt lat="45.13483" lon="3.99877">
        <ele>730.26</ele>
        <time>2020-07-26T07:36:39Z</time>
      </trkpt>
      <trkpt lat="45.13474" lon="3.99877">
        <ele>730.74</ele>
        <time>2020-07-26T07:36:49Z</time>
      </trkpt>
      <trkpt lat="45.13461" lon="3.99876">
        <ele>732.18</ele>
        <time>2020-07-26T07:37:02Z</time>
      </trkpt>
      <trkpt lat="45.13447" lon="3.99874">
        <ele>734.1</ele>
        <time>2020-07-26T07:37:16Z</time>
      </trkpt>
      <trkpt lat="45.13434" lon="3.99873">
        <ele>734.58</ele>
        <time>2020-07-26T07:37:30Z</time>
      </trkpt>
      <trkpt lat="45.1342" lon="3.99875">
        <ele>737.47</ele>
        <time>2020-07-26T07:37:45Z</time>
      </trkpt>
      <trkpt lat="45.13411" lon="3.99876">
        <ele>738.91</ele>
        <time>2020-07-26T07:37:56Z</time>
      </trkpt>
      <trkpt lat="45.13398" lon="3.9988">
        <ele>740.83</ele>
        <time>2020-07-26T07:38:11Z</time>
      </trkpt>
      <trkpt lat="45.13388" lon="3.99885">
        <ele>743.24</ele>
        <time>2020-07-26T07:38:25Z</time>
      </trkpt>
      <trkpt lat="45.13387" lon="3.99885">
        <ele>742.28</ele>
        <time>2020-07-26T07:38:26Z</time>
      </trkpt>
      <trkpt lat="45.13384" lon="3.99889">
        <ele>743.72</ele>
        <time>2020-07-26T07:38:39Z</time>
      </trkpt>
      <trkpt lat="45.13385" lon="3.99889">
        <ele>743.72</ele>
        <time>2020-07-26T07:39:03Z</time>
      </trkpt>
      <trkpt lat="45.13384" lon="3.99888">
        <ele>744.2</ele>
        <time>2020-07-26T07:39:05Z</time>
      </trkpt>
      <trkpt lat="45.1337" lon="3.99888">
        <ele>745.16</ele>
        <time>2020-07-26T07:39:18Z</time>
      </trkpt>
      <trkpt lat="45.13353" lon="3.99889">
        <ele>746.6</ele>
        <time>2020-07-26T07:39:34Z</time>
      </trkpt>
      <trkpt lat="45.13334" lon="3.99892">
        <ele>747.56</ele>
        <time>2020-07-26T07:39:50Z</time>
      </trkpt>
      <trkpt lat="45.13318" lon="3.99895">
        <ele>748.04</ele>
        <time>2020-07-26T07:40:03Z</time>
      </trkpt>
      <trkpt lat="45.13312" lon="3.99898">
        <ele>748.52</ele>
        <time>2020-07-26T07:40:08Z</time>
      </trkpt>
      <trkpt lat="45.13298" lon="3.99898">
        <ele>749</ele>
        <time>2020-07-26T07:40:21Z</time>
      </trkpt>
      <trkpt lat="45.13281" lon="3.99897">
        <ele>749.49</ele>
        <time>2020-07-26T07:40:36Z</time>
      </trkpt>
      <trkpt lat="45.1326" lon="3.999">
        <ele>749.49</ele>
        <time>2020-07-26T07:40:53Z</time>
      </trkpt>
      <trkpt lat="45.13242" lon="3.99908">
        <ele>748.52</ele>
        <time>2020-07-26T07:41:08Z</time>
      </trkpt>
      <trkpt lat="45.13227" lon="3.99917">
        <ele>749</ele>
        <time>2020-07-26T07:41:23Z</time>
      </trkpt>
      <trkpt lat="45.13221" lon="3.99921">
        <ele>748.52</ele>
        <time>2020-07-26T07:41:29Z</time>
      </trkpt>
      <trkpt lat="45.13211" lon="3.9994">
        <ele>749</ele>
        <time>2020-07-26T07:41:45Z</time>
      </trkpt>
      <trkpt lat="45.13207" lon="3.99971">
        <ele>749.49</ele>
        <time>2020-07-26T07:42:01Z</time>
      </trkpt>
      <trkpt lat="45.13205" lon="3.99999">
        <ele>749.97</ele>
        <time>2020-07-26T07:42:17Z</time>
      </trkpt>
      <trkpt lat="45.13207" lon="4.0002">
        <ele>750.93</ele>
        <time>2020-07-26T07:42:32Z</time>
      </trkpt>
      <trkpt lat="45.13207" lon="4.00031">
        <ele>750.45</ele>
        <time>2020-07-26T07:42:39Z</time>
      </trkpt>
      <trkpt lat="45.13207" lon="4.0004">
        <ele>751.41</ele>
        <time>2020-07-26T07:42:44Z</time>
      </trkpt>
      <trkpt lat="45.13205" lon="4.00058">
        <ele>751.41</ele>
        <time>2020-07-26T07:43:01Z</time>
      </trkpt>
      <trkpt lat="45.13203" lon="4.00058">
        <ele>750.93</ele>
        <time>2020-07-26T07:43:37Z</time>
      </trkpt>
      <trkpt lat="45.13201" lon="4.00054">
        <ele>751.41</ele>
        <time>2020-07-26T07:44:12Z</time>
      </trkpt>
      <trkpt lat="45.13203" lon="4.00055">
        <ele>750.93</ele>
        <time>2020-07-26T07:44:44Z</time>
      </trkpt>
      <trkpt lat="45.13207" lon="4.00066">
        <ele>751.41</ele>
        <time>2020-07-26T07:45:01Z</time>
      </trkpt>
      <trkpt lat="45.13214" lon="4.00083">
        <ele>751.89</ele>
        <time>2020-07-26T07:45:13Z</time>
      </trkpt>
      <trkpt lat="45.13218" lon="4.00092">
        <ele>752.37</ele>
        <time>2020-07-26T07:45:20Z</time>
      </trkpt>
      <trkpt lat="45.13225" lon="4.00111">
        <ele>753.33</ele>
        <time>2020-07-26T07:45:35Z</time>
      </trkpt>
      <trkpt lat="45.13234" lon="4.00129">
        <ele>754.29</ele>
        <time>2020-07-26T07:45:50Z</time>
      </trkpt>
      <trkpt lat="45.13241" lon="4.00144">
        <ele>755.73</ele>
        <time>2020-07-26T07:46:04Z</time>
      </trkpt>
      <trkpt lat="45.13249" lon="4.00157">
        <ele>757.18</ele>
        <time>2020-07-26T07:46:18Z</time>
      </trkpt>
      <trkpt lat="45.13262" lon="4.00169">
        <ele>760.06</ele>
        <time>2020-07-26T07:46:35Z</time>
      </trkpt>
      <trkpt lat="45.13264" lon="4.00186">
        <ele>763.42</ele>
        <time>2020-07-26T07:46:53Z</time>
      </trkpt>
      <trkpt lat="45.13258" lon="4.00208">
        <ele>764.87</ele>
        <time>2020-07-26T07:47:11Z</time>
      </trkpt>
      <trkpt lat="45.13254" lon="4.00224">
        <ele>766.79</ele>
        <time>2020-07-26T07:47:28Z</time>
      </trkpt>
      <trkpt lat="45.13248" lon="4.00242">
        <ele>769.19</ele>
        <time>2020-07-26T07:47:45Z</time>
      </trkpt>
      <trkpt lat="45.13246" lon="4.00257">
        <ele>771.6</ele>
        <time>2020-07-26T07:48:00Z</time>
      </trkpt>
      <trkpt lat="45.1324" lon="4.00277">
        <ele>773.52</ele>
        <time>2020-07-26T07:48:18Z</time>
      </trkpt>
      <trkpt lat="45.13236" lon="4.00293">
        <ele>775.44</ele>
        <time>2020-07-26T07:48:36Z</time>
      </trkpt>
      <trkpt lat="45.13231" lon="4.00309">
        <ele>777.36</ele>
        <time>2020-07-26T07:48:50Z</time>
      </trkpt>
      <trkpt lat="45.13224" lon="4.00329">
        <ele>778.81</ele>
        <time>2020-07-26T07:49:09Z</time>
      </trkpt>
      <trkpt lat="45.13213" lon="4.00351">
        <ele>781.69</ele>
        <time>2020-07-26T07:49:30Z</time>
      </trkpt>
      <trkpt lat="45.13208" lon="4.00358">
        <ele>782.65</ele>
        <time>2020-07-26T07:49:40Z</time>
      </trkpt>
      <trkpt lat="45.13204" lon="4.0036">
        <ele>782.65</ele>
        <time>2020-07-26T07:49:45Z</time>
      </trkpt>
      <trkpt lat="45.132" lon="4.00354">
        <ele>780.73</ele>
        <time>2020-07-26T07:49:58Z</time>
      </trkpt>
      <trkpt lat="45.13199" lon="4.00344">
        <ele>777.84</ele>
        <time>2020-07-26T07:50:09Z</time>
      </trkpt>
      <trkpt lat="45.13199" lon="4.00343">
        <ele>776.88</ele>
        <time>2020-07-26T07:50:34Z</time>
      </trkpt>
      <trkpt lat="45.13199" lon="4.00342">
        <ele>774.96</ele>
        <time>2020-07-26T07:50:39Z</time>
      </trkpt>
      <trkpt lat="45.13198" lon="4.00336">
        <ele>775.92</ele>
        <time>2020-07-26T07:50:57Z</time>
      </trkpt>
      <trkpt lat="45.13199" lon="4.00333">
        <ele>775.92</ele>
        <time>2020-07-26T07:51:27Z</time>
      </trkpt>
      <trkpt lat="45.13196" lon="4.00343">
        <ele>777.36</ele>
        <time>2020-07-26T07:51:53Z</time>
      </trkpt>
      <trkpt lat="45.13197" lon="4.00346">
        <ele>777.84</ele>
        <time>2020-07-26T07:52:09Z</time>
      </trkpt>
      <trkpt lat="45.13203" lon="4.0035">
        <ele>779.29</ele>
        <time>2020-07-26T07:52:28Z</time>
      </trkpt>
      <trkpt lat="45.13199" lon="4.00353">
        <ele>782.17</ele>
        <time>2020-07-26T07:52:41Z</time>
      </trkpt>
      <trkpt lat="45.13205" lon="4.00368">
        <ele>784.09</ele>
        <time>2020-07-26T07:52:57Z</time>
      </trkpt>
      <trkpt lat="45.13199" lon="4.00378">
        <ele>785.53</ele>
        <time>2020-07-26T07:53:11Z</time>
      </trkpt>
      <trkpt lat="45.13194" lon="4.00381">
        <ele>786.02</ele>
        <time>2020-07-26T07:53:18Z</time>
      </trkpt>
      <trkpt lat="45.13191" lon="4.00388">
        <ele>786.98</ele>
        <time>2020-07-26T07:53:29Z</time>
      </trkpt>
      <trkpt lat="45.13185" lon="4.00408">
        <ele>787.94</ele>
        <time>2020-07-26T07:53:43Z</time>
      </trkpt>
      <trkpt lat="45.1318" lon="4.00427">
        <ele>789.86</ele>
        <time>2020-07-26T07:53:57Z</time>
      </trkpt>
      <trkpt lat="45.13173" lon="4.00453">
        <ele>790.34</ele>
        <time>2020-07-26T07:54:15Z</time>
      </trkpt>
      <trkpt lat="45.13163" lon="4.00475">
        <ele>791.3</ele>
        <time>2020-07-26T07:54:32Z</time>
      </trkpt>
      <trkpt lat="45.1315" lon="4.005">
        <ele>790.82</ele>
        <time>2020-07-26T07:54:51Z</time>
      </trkpt>
      <trkpt lat="45.13147" lon="4.00505">
        <ele>790.82</ele>
        <time>2020-07-26T07:54:56Z</time>
      </trkpt>
      <trkpt lat="45.13144" lon="4.00503">
        <ele>789.86</ele>
        <time>2020-07-26T07:55:12Z</time>
      </trkpt>
      <trkpt lat="45.13145" lon="4.00502">
        <ele>789.86</ele>
        <time>2020-07-26T07:55:23Z</time>
      </trkpt>
      <trkpt lat="45.13128" lon="4.00519">
        <ele>788.42</ele>
        <time>2020-07-26T07:55:40Z</time>
      </trkpt>
      <trkpt lat="45.13118" lon="4.00522">
        <ele>786.5</ele>
        <time>2020-07-26T07:55:52Z</time>
      </trkpt>
      <trkpt lat="45.13125" lon="4.00513">
        <ele>785.05</ele>
        <time>2020-07-26T07:56:00Z</time>
      </trkpt>
      <trkpt lat="45.13126" lon="4.00503">
        <ele>785.05</ele>
        <time>2020-07-26T07:56:18Z</time>
      </trkpt>
      <trkpt lat="45.13125" lon="4.00501">
        <ele>785.05</ele>
        <time>2020-07-26T07:56:45Z</time>
      </trkpt>
      <trkpt lat="45.13124" lon="4.00502">
        <ele>785.05</ele>
        <time>2020-07-26T07:56:51Z</time>
      </trkpt>
      <trkpt lat="45.13119" lon="4.00522">
        <ele>786.02</ele>
        <time>2020-07-26T07:57:07Z</time>
      </trkpt>
      <trkpt lat="45.13112" lon="4.00536">
        <ele>786.98</ele>
        <time>2020-07-26T07:57:20Z</time>
      </trkpt>
      <trkpt lat="45.13096" lon="4.00548">
        <ele>786.98</ele>
        <time>2020-07-26T07:57:35Z</time>
      </trkpt>
      <trkpt lat="45.13092" lon="4.00555">
        <ele>786.02</ele>
        <time>2020-07-26T07:57:48Z</time>
      </trkpt>
      <trkpt lat="45.13084" lon="4.00558">
        <ele>786.02</ele>
        <time>2020-07-26T07:58:01Z</time>
      </trkpt>
      <trkpt lat="45.13081" lon="4.00561">
        <ele>785.05</ele>
        <time>2020-07-26T07:58:04Z</time>
      </trkpt>
      <trkpt lat="45.13064" lon="4.00577">
        <ele>784.57</ele>
        <time>2020-07-26T07:58:21Z</time>
      </trkpt>
      <trkpt lat="45.13047" lon="4.00589">
        <ele>783.61</ele>
        <time>2020-07-26T07:58:39Z</time>
      </trkpt>
      <trkpt lat="45.13028" lon="4.006">
        <ele>781.69</ele>
        <time>2020-07-26T07:58:58Z</time>
      </trkpt>
      <trkpt lat="45.13025" lon="4.00602">
        <ele>781.21</ele>
        <time>2020-07-26T07:59:10Z</time>
      </trkpt>
      <trkpt lat="45.13012" lon="4.00602">
        <ele>780.25</ele>
        <time>2020-07-26T07:59:22Z</time>
      </trkpt>
      <trkpt lat="45.12993" lon="4.00601">
        <ele>778.81</ele>
        <time>2020-07-26T07:59:39Z</time>
      </trkpt>
      <trkpt lat="45.12967" lon="4.00601">
        <ele>777.84</ele>
        <time>2020-07-26T08:00:01Z</time>
      </trkpt>
      <trkpt lat="45.12956" lon="4.00602">
        <ele>778.81</ele>
        <time>2020-07-26T08:00:11Z</time>
      </trkpt>
      <trkpt lat="45.12951" lon="4.00602">
        <ele>778.81</ele>
        <time>2020-07-26T08:00:14Z</time>
      </trkpt>
      <trkpt lat="45.12933" lon="4.00588">
        <ele>777.36</ele>
        <time>2020-07-26T08:00:31Z</time>
      </trkpt>
      <trkpt lat="45.12932" lon="4.00587">
        <ele>776.88</ele>
        <time>2020-07-26T08:00:32Z</time>
      </trkpt>
      <trkpt lat="45.12918" lon="4.00587">
        <ele>778.81</ele>
        <time>2020-07-26T08:00:46Z</time>
      </trkpt>
      <trkpt lat="45.12917" lon="4.0059">
        <ele>778.32</ele>
        <time>2020-07-26T08:00:48Z</time>
      </trkpt>
      <trkpt lat="45.12913" lon="4.00592">
        <ele>778.81</ele>
        <time>2020-07-26T08:00:53Z</time>
      </trkpt>
      <trkpt lat="45.12899" lon="4.00606">
        <ele>780.25</ele>
        <time>2020-07-26T08:01:08Z</time>
      </trkpt>
      <trkpt lat="45.12886" lon="4.00624">
        <ele>782.17</ele>
        <time>2020-07-26T08:01:24Z</time>
      </trkpt>
      <trkpt lat="45.12882" lon="4.00625">
        <ele>781.69</ele>
        <time>2020-07-26T08:01:28Z</time>
      </trkpt>
      <trkpt lat="45.12873" lon="4.0063">
        <ele>782.65</ele>
        <time>2020-07-26T08:01:39Z</time>
      </trkpt>
      <trkpt lat="45.12863" lon="4.00643">
        <ele>784.09</ele>
        <time>2020-07-26T08:01:52Z</time>
      </trkpt>
      <trkpt lat="45.12854" lon="4.00655">
        <ele>784.57</ele>
        <time>2020-07-26T08:02:06Z</time>
      </trkpt>
      <trkpt lat="45.12842" lon="4.00662">
        <ele>784.09</ele>
        <time>2020-07-26T08:02:20Z</time>
      </trkpt>
      <trkpt lat="45.12847" lon="4.00658">
        <ele>785.05</ele>
        <time>2020-07-26T08:02:40Z</time>
      </trkpt>
      <trkpt lat="45.12847" lon="4.00667">
        <ele>784.57</ele>
        <time>2020-07-26T08:02:52Z</time>
      </trkpt>
      <trkpt lat="45.12843" lon="4.00667">
        <ele>785.05</ele>
        <time>2020-07-26T08:03:11Z</time>
      </trkpt>
      <trkpt lat="45.12839" lon="4.00668">
        <ele>784.09</ele>
        <time>2020-07-26T08:03:15Z</time>
      </trkpt>
      <trkpt lat="45.12831" lon="4.00662">
        <ele>784.57</ele>
        <time>2020-07-26T08:03:28Z</time>
      </trkpt>
      <trkpt lat="45.12831" lon="4.00662">
        <ele>784.57</ele>
        <time>2020-07-26T08:03:29Z</time>
      </trkpt>
      <trkpt lat="45.12826" lon="4.00667">
        <ele>784.09</ele>
        <time>2020-07-26T08:03:44Z</time>
      </trkpt>
      <trkpt lat="45.12822" lon="4.00674">
        <ele>784.09</ele>
        <time>2020-07-26T08:03:57Z</time>
      </trkpt>
      <trkpt lat="45.12822" lon="4.0068">
        <ele>783.61</ele>
        <time>2020-07-26T08:04:00Z</time>
      </trkpt>
      <trkpt lat="45.12827" lon="4.00692">
        <ele>783.61</ele>
        <time>2020-07-26T08:04:13Z</time>
      </trkpt>
      <trkpt lat="45.12828" lon="4.00692">
        <ele>783.61</ele>
        <time>2020-07-26T08:04:14Z</time>
      </trkpt>
      <trkpt lat="45.12833" lon="4.00689">
        <ele>783.61</ele>
        <time>2020-07-26T08:04:24Z</time>
      </trkpt>
      <trkpt lat="45.1284" lon="4.00699">
        <ele>784.09</ele>
        <time>2020-07-26T08:04:39Z</time>
      </trkpt>
      <trkpt lat="45.12839" lon="4.007">
        <ele>784.09</ele>
        <time>2020-07-26T08:04:48Z</time>
      </trkpt>
      <trkpt lat="45.12836" lon="4.00697">
        <ele>783.61</ele>
        <time>2020-07-26T08:05:02Z</time>
      </trkpt>
      <trkpt lat="45.12834" lon="4.00699">
        <ele>783.61</ele>
        <time>2020-07-26T08:05:07Z</time>
      </trkpt>
      <trkpt lat="45.12831" lon="4.00713">
        <ele>783.13</ele>
        <time>2020-07-26T08:05:14Z</time>
      </trkpt>
      <trkpt lat="45.12828" lon="4.00711">
        <ele>782.17</ele>
        <time>2020-07-26T08:05:28Z</time>
      </trkpt>
      <trkpt lat="45.12831" lon="4.00714">
        <ele>783.13</ele>
        <time>2020-07-26T08:05:52Z</time>
      </trkpt>
      <trkpt lat="45.12827" lon="4.00721">
        <ele>782.17</ele>
        <time>2020-07-26T08:05:59Z</time>
      </trkpt>
      <trkpt lat="45.12825" lon="4.00723">
        <ele>782.65</ele>
        <time>2020-07-26T08:06:16Z</time>
      </trkpt>
      <trkpt lat="45.12832" lon="4.00727">
        <ele>783.61</ele>
        <time>2020-07-26T08:06:30Z</time>
      </trkpt>
      <trkpt lat="45.1284" lon="4.00747">
        <ele>784.09</ele>
        <time>2020-07-26T08:06:45Z</time>
      </trkpt>
      <trkpt lat="45.12849" lon="4.00762">
        <ele>785.53</ele>
        <time>2020-07-26T08:06:58Z</time>
      </trkpt>
      <trkpt lat="45.12858" lon="4.00775">
        <ele>787.46</ele>
        <time>2020-07-26T08:07:12Z</time>
      </trkpt>
      <trkpt lat="45.12864" lon="4.00792">
        <ele>788.42</ele>
        <time>2020-07-26T08:07:27Z</time>
      </trkpt>
      <trkpt lat="45.12864" lon="4.00806">
        <ele>789.38</ele>
        <time>2020-07-26T08:07:42Z</time>
      </trkpt>
      <trkpt lat="45.12865" lon="4.0082">
        <ele>790.34</ele>
        <time>2020-07-26T08:07:57Z</time>
      </trkpt>
      <trkpt lat="45.12867" lon="4.00823">
        <ele>790.34</ele>
        <time>2020-07-26T08:08:13Z</time>
      </trkpt>
      <trkpt lat="45.12865" lon="4.00838">
        <ele>790.82</ele>
        <time>2020-07-26T08:08:36Z</time>
      </trkpt>
      <trkpt lat="45.1286" lon="4.00872">
        <ele>792.74</ele>
        <time>2020-07-26T08:08:56Z</time>
      </trkpt>
      <trkpt lat="45.12859" lon="4.00893">
        <ele>793.22</ele>
        <time>2020-07-26T08:09:13Z</time>
      </trkpt>
      <trkpt lat="45.12859" lon="4.00894">
        <ele>793.71</ele>
        <time>2020-07-26T08:09:14Z</time>
      </trkpt>
      <trkpt lat="45.12861" lon="4.00901">
        <ele>793.71</ele>
        <time>2020-07-26T08:09:25Z</time>
      </trkpt>
      <trkpt lat="45.12862" lon="4.00913">
        <ele>794.67</ele>
        <time>2020-07-26T08:09:36Z</time>
      </trkpt>
      <trkpt lat="45.12863" lon="4.00918">
        <ele>794.67</ele>
        <time>2020-07-26T08:09:40Z</time>
      </trkpt>
      <trkpt lat="45.12863" lon="4.00939">
        <ele>796.59</ele>
        <time>2020-07-26T08:10:00Z</time>
      </trkpt>
      <trkpt lat="45.1286" lon="4.00971">
        <ele>797.55</ele>
        <time>2020-07-26T08:10:21Z</time>
      </trkpt>
      <trkpt lat="45.12858" lon="4.00994">
        <ele>799.47</ele>
        <time>2020-07-26T08:10:37Z</time>
      </trkpt>
      <trkpt lat="45.12859" lon="4.0102">
        <ele>801.4</ele>
        <time>2020-07-26T08:10:56Z</time>
      </trkpt>
      <trkpt lat="45.12862" lon="4.01046">
        <ele>802.84</ele>
        <time>2020-07-26T08:11:15Z</time>
      </trkpt>
      <trkpt lat="45.12864" lon="4.01072">
        <ele>804.28</ele>
        <time>2020-07-26T08:11:34Z</time>
      </trkpt>
      <trkpt lat="45.12864" lon="4.01098">
        <ele>806.2</ele>
        <time>2020-07-26T08:11:52Z</time>
      </trkpt>
      <trkpt lat="45.12861" lon="4.01128">
        <ele>807.64</ele>
        <time>2020-07-26T08:12:13Z</time>
      </trkpt>
      <trkpt lat="45.12856" lon="4.01146">
        <ele>809.09</ele>
        <time>2020-07-26T08:12:29Z</time>
      </trkpt>
      <trkpt lat="45.12855" lon="4.01152">
        <ele>808.61</ele>
        <time>2020-07-26T08:12:33Z</time>
      </trkpt>
      <trkpt lat="45.12852" lon="4.01173">
        <ele>810.05</ele>
        <time>2020-07-26T08:12:48Z</time>
      </trkpt>
      <trkpt lat="45.12853" lon="4.01187">
        <ele>811.01</ele>
        <time>2020-07-26T08:13:01Z</time>
      </trkpt>
      <trkpt lat="45.1285" lon="4.01201">
        <ele>812.45</ele>
        <time>2020-07-26T08:13:16Z</time>
      </trkpt>
      <trkpt lat="45.1285" lon="4.01214">
        <ele>813.89</ele>
        <time>2020-07-26T08:13:27Z</time>
      </trkpt>
      <trkpt lat="45.12851" lon="4.01233">
        <ele>815.82</ele>
        <time>2020-07-26T08:13:42Z</time>
      </trkpt>
      <trkpt lat="45.1285" lon="4.0125">
        <ele>816.78</ele>
        <time>2020-07-26T08:13:56Z</time>
      </trkpt>
      <trkpt lat="45.12853" lon="4.01269">
        <ele>818.22</ele>
        <time>2020-07-26T08:14:09Z</time>
      </trkpt>
      <trkpt lat="45.12857" lon="4.01279">
        <ele>819.66</ele>
        <time>2020-07-26T08:14:16Z</time>
      </trkpt>
      <trkpt lat="45.1286" lon="4.01288">
        <ele>819.66</ele>
        <time>2020-07-26T08:14:23Z</time>
      </trkpt>
      <trkpt lat="45.12867" lon="4.013">
        <ele>820.62</ele>
        <time>2020-07-26T08:14:34Z</time>
      </trkpt>
      <trkpt lat="45.12871" lon="4.01314">
        <ele>821.58</ele>
        <time>2020-07-26T08:14:45Z</time>
      </trkpt>
      <trkpt lat="45.12877" lon="4.01338">
        <ele>823.03</ele>
        <time>2020-07-26T08:15:02Z</time>
      </trkpt>
      <trkpt lat="45.12882" lon="4.01364">
        <ele>824.95</ele>
        <time>2020-07-26T08:15:22Z</time>
      </trkpt>
      <trkpt lat="45.12892" lon="4.01377">
        <ele>825.91</ele>
        <time>2020-07-26T08:15:36Z</time>
      </trkpt>
      <trkpt lat="45.12907" lon="4.01396">
        <ele>827.35</ele>
        <time>2020-07-26T08:15:58Z</time>
      </trkpt>
      <trkpt lat="45.12925" lon="4.01413">
        <ele>828.31</ele>
        <time>2020-07-26T08:16:18Z</time>
      </trkpt>
      <trkpt lat="45.12938" lon="4.01422">
        <ele>829.27</ele>
        <time>2020-07-26T08:16:33Z</time>
      </trkpt>
      <trkpt lat="45.12957" lon="4.01427">
        <ele>830.72</ele>
        <time>2020-07-26T08:16:50Z</time>
      </trkpt>
      <trkpt lat="45.12974" lon="4.01432">
        <ele>832.16</ele>
        <time>2020-07-26T08:17:07Z</time>
      </trkpt>
      <trkpt lat="45.1299" lon="4.01439">
        <ele>834.08</ele>
        <time>2020-07-26T08:17:25Z</time>
      </trkpt>
      <trkpt lat="45.13007" lon="4.01444">
        <ele>835.52</ele>
        <time>2020-07-26T08:17:43Z</time>
      </trkpt>
      <trkpt lat="45.13021" lon="4.01459">
        <ele>836.96</ele>
        <time>2020-07-26T08:18:04Z</time>
      </trkpt>
      <trkpt lat="45.13033" lon="4.01473">
        <ele>838.41</ele>
        <time>2020-07-26T08:18:23Z</time>
      </trkpt>
      <trkpt lat="45.13045" lon="4.01489">
        <ele>839.85</ele>
        <time>2020-07-26T08:18:42Z</time>
      </trkpt>
      <trkpt lat="45.13054" lon="4.01495">
        <ele>840.81</ele>
        <time>2020-07-26T08:18:56Z</time>
      </trkpt>
      <trkpt lat="45.1307" lon="4.01503">
        <ele>842.25</ele>
        <time>2020-07-26T08:19:15Z</time>
      </trkpt>
      <trkpt lat="45.13088" lon="4.01511">
        <ele>843.69</ele>
        <time>2020-07-26T08:19:35Z</time>
      </trkpt>
      <trkpt lat="45.13107" lon="4.01531">
        <ele>844.66</ele>
        <time>2020-07-26T08:19:57Z</time>
      </trkpt>
      <trkpt lat="45.13126" lon="4.01541">
        <ele>845.62</ele>
        <time>2020-07-26T08:20:15Z</time>
      </trkpt>
      <trkpt lat="45.13138" lon="4.01546">
        <ele>846.58</ele>
        <time>2020-07-26T08:20:25Z</time>
      </trkpt>
      <trkpt lat="45.13143" lon="4.01562">
        <ele>845.62</ele>
        <time>2020-07-26T08:20:37Z</time>
      </trkpt>
      <trkpt lat="45.13149" lon="4.01582">
        <ele>845.14</ele>
        <time>2020-07-26T08:20:50Z</time>
      </trkpt>
      <trkpt lat="45.13153" lon="4.01597">
        <ele>844.66</ele>
        <time>2020-07-26T08:21:00Z</time>
      </trkpt>
      <trkpt lat="45.13154" lon="4.016">
        <ele>844.66</ele>
        <time>2020-07-26T08:21:02Z</time>
      </trkpt>
      <trkpt lat="45.13161" lon="4.01617">
        <ele>843.69</ele>
        <time>2020-07-26T08:21:15Z</time>
      </trkpt>
      <trkpt lat="45.13167" lon="4.01628">
        <ele>843.21</ele>
        <time>2020-07-26T08:21:25Z</time>
      </trkpt>
      <trkpt lat="45.13181" lon="4.01642">
        <ele>843.21</ele>
        <time>2020-07-26T08:21:40Z</time>
      </trkpt>
      <trkpt lat="45.13202" lon="4.01658">
        <ele>844.18</ele>
        <time>2020-07-26T08:22:00Z</time>
      </trkpt>
      <trkpt lat="45.13214" lon="4.01665">
        <ele>844.18</ele>
        <time>2020-07-26T08:22:15Z</time>
      </trkpt>
      <trkpt lat="45.13218" lon="4.01672">
        <ele>843.69</ele>
        <time>2020-07-26T08:22:47Z</time>
      </trkpt>
      <trkpt lat="45.13227" lon="4.01675">
        <ele>844.18</ele>
        <time>2020-07-26T08:22:56Z</time>
      </trkpt>
      <trkpt lat="45.13244" lon="4.01681">
        <ele>844.66</ele>
        <time>2020-07-26T08:23:11Z</time>
      </trkpt>
      <trkpt lat="45.13262" lon="4.01686">
        <ele>845.14</ele>
        <time>2020-07-26T08:23:29Z</time>
      </trkpt>
      <trkpt lat="45.13278" lon="4.01693">
        <ele>846.1</ele>
        <time>2020-07-26T08:23:46Z</time>
      </trkpt>
      <trkpt lat="45.1328" lon="4.01694">
        <ele>844.66</ele>
        <time>2020-07-26T08:23:48Z</time>
      </trkpt>
      <trkpt lat="45.13303" lon="4.01705">
        <ele>845.14</ele>
        <time>2020-07-26T08:24:03Z</time>
      </trkpt>
      <trkpt lat="45.13316" lon="4.0171">
        <ele>845.14</ele>
        <time>2020-07-26T08:24:16Z</time>
      </trkpt>
      <trkpt lat="45.13333" lon="4.01718">
        <ele>844.66</ele>
        <time>2020-07-26T08:24:32Z</time>
      </trkpt>
      <trkpt lat="45.1335" lon="4.01726">
        <ele>845.14</ele>
        <time>2020-07-26T08:24:48Z</time>
      </trkpt>
      <trkpt lat="45.13358" lon="4.01729">
        <ele>845.14</ele>
        <time>2020-07-26T08:24:56Z</time>
      </trkpt>
      <trkpt lat="45.13364" lon="4.01731">
        <ele>844.66</ele>
        <time>2020-07-26T08:25:00Z</time>
      </trkpt>
      <trkpt lat="45.13387" lon="4.01739">
        <ele>843.21</ele>
        <time>2020-07-26T08:25:17Z</time>
      </trkpt>
      <trkpt lat="45.13419" lon="4.01747">
        <ele>841.77</ele>
        <time>2020-07-26T08:25:39Z</time>
      </trkpt>
      <trkpt lat="45.13441" lon="4.01765">
        <ele>838.89</ele>
        <time>2020-07-26T08:25:58Z</time>
      </trkpt>
      <trkpt lat="45.13456" lon="4.01781">
        <ele>836.48</ele>
        <time>2020-07-26T08:26:17Z</time>
      </trkpt>
      <trkpt lat="45.13457" lon="4.01782">
        <ele>836</ele>
        <time>2020-07-26T08:26:18Z</time>
      </trkpt>
      <trkpt lat="45.13462" lon="4.01787">
        <ele>835.52</ele>
        <time>2020-07-26T08:26:22Z</time>
      </trkpt>
      <trkpt lat="45.13464" lon="4.01788">
        <ele>835.52</ele>
        <time>2020-07-26T08:26:23Z</time>
      </trkpt>
      <trkpt lat="45.13465" lon="4.0179">
        <ele>835.04</ele>
        <time>2020-07-26T08:26:24Z</time>
      </trkpt>
      <trkpt lat="45.13481" lon="4.01806">
        <ele>831.2</ele>
        <time>2020-07-26T08:26:36Z</time>
      </trkpt>
      <trkpt lat="45.13484" lon="4.01809">
        <ele>831.68</ele>
        <time>2020-07-26T08:26:41Z</time>
      </trkpt>
      <trkpt lat="45.13485" lon="4.0181">
        <ele>831.2</ele>
        <time>2020-07-26T08:26:42Z</time>
      </trkpt>
      <trkpt lat="45.13486" lon="4.01811">
        <ele>831.2</ele>
        <time>2020-07-26T08:26:43Z</time>
      </trkpt>
      <trkpt lat="45.1349" lon="4.01813">
        <ele>830.72</ele>
        <time>2020-07-26T08:26:55Z</time>
      </trkpt>
      <trkpt lat="45.13494" lon="4.01813">
        <ele>830.72</ele>
        <time>2020-07-26T08:27:12Z</time>
      </trkpt>
      <trkpt lat="45.13499" lon="4.01816">
        <ele>829.27</ele>
        <time>2020-07-26T08:27:21Z</time>
      </trkpt>
      <trkpt lat="45.13504" lon="4.01821">
        <ele>829.76</ele>
        <time>2020-07-26T08:27:29Z</time>
      </trkpt>
      <trkpt lat="45.13506" lon="4.01822">
        <ele>829.27</ele>
        <time>2020-07-26T08:27:30Z</time>
      </trkpt>
      <trkpt lat="45.13507" lon="4.01824">
        <ele>829.27</ele>
        <time>2020-07-26T08:27:31Z</time>
      </trkpt>
      <trkpt lat="45.1353" lon="4.01842">
        <ele>828.31</ele>
        <time>2020-07-26T08:27:46Z</time>
      </trkpt>
      <trkpt lat="45.13538" lon="4.01846">
        <ele>826.39</ele>
        <time>2020-07-26T08:27:57Z</time>
      </trkpt>
      <trkpt lat="45.13554" lon="4.01853">
        <ele>824.47</ele>
        <time>2020-07-26T08:28:11Z</time>
      </trkpt>
      <trkpt lat="45.13572" lon="4.01861">
        <ele>823.51</ele>
        <time>2020-07-26T08:28:25Z</time>
      </trkpt>
      <trkpt lat="45.13575" lon="4.01862">
        <ele>823.51</ele>
        <time>2020-07-26T08:28:29Z</time>
      </trkpt>
      <trkpt lat="45.13576" lon="4.01862">
        <ele>823.03</ele>
        <time>2020-07-26T08:28:30Z</time>
      </trkpt>
      <trkpt lat="45.13578" lon="4.01862">
        <ele>823.51</ele>
        <time>2020-07-26T08:28:31Z</time>
      </trkpt>
      <trkpt lat="45.13579" lon="4.01863">
        <ele>822.55</ele>
        <time>2020-07-26T08:28:32Z</time>
      </trkpt>
      <trkpt lat="45.1358" lon="4.01863">
        <ele>823.03</ele>
        <time>2020-07-26T08:28:33Z</time>
      </trkpt>
      <trkpt lat="45.13581" lon="4.01864">
        <ele>823.03</ele>
        <time>2020-07-26T08:28:34Z</time>
      </trkpt>
      <trkpt lat="45.13596" lon="4.01866">
        <ele>822.06</ele>
        <time>2020-07-26T08:28:47Z</time>
      </trkpt>
      <trkpt lat="45.1361" lon="4.01872">
        <ele>822.06</ele>
        <time>2020-07-26T08:28:58Z</time>
      </trkpt>
      <trkpt lat="45.1362" lon="4.01887">
        <ele>821.58</ele>
        <time>2020-07-26T08:29:10Z</time>
      </trkpt>
      <trkpt lat="45.1362" lon="4.01889">
        <ele>821.58</ele>
        <time>2020-07-26T08:29:11Z</time>
      </trkpt>
      <trkpt lat="45.13622" lon="4.01903">
        <ele>820.62</ele>
        <time>2020-07-26T08:29:18Z</time>
      </trkpt>
      <trkpt lat="45.13624" lon="4.01911">
        <ele>820.14</ele>
        <time>2020-07-26T08:29:25Z</time>
      </trkpt>
      <trkpt lat="45.13625" lon="4.01913">
        <ele>820.14</ele>
        <time>2020-07-26T08:29:26Z</time>
      </trkpt>
      <trkpt lat="45.13625" lon="4.01914">
        <ele>819.66</ele>
        <time>2020-07-26T08:29:27Z</time>
      </trkpt>
      <trkpt lat="45.13626" lon="4.01916">
        <ele>819.66</ele>
        <time>2020-07-26T08:29:28Z</time>
      </trkpt>
      <trkpt lat="45.13626" lon="4.01917">
        <ele>819.66</ele>
        <time>2020-07-26T08:29:29Z</time>
      </trkpt>
      <trkpt lat="45.13632" lon="4.01926">
        <ele>819.18</ele>
        <time>2020-07-26T08:29:38Z</time>
      </trkpt>
      <trkpt lat="45.13635" lon="4.01928">
        <ele>818.7</ele>
        <time>2020-07-26T08:29:41Z</time>
      </trkpt>
      <trkpt lat="45.13636" lon="4.01929">
        <ele>819.18</ele>
        <time>2020-07-26T08:29:42Z</time>
      </trkpt>
      <trkpt lat="45.13637" lon="4.01931">
        <ele>819.18</ele>
        <time>2020-07-26T08:29:43Z</time>
      </trkpt>
      <trkpt lat="45.13638" lon="4.01932">
        <ele>818.7</ele>
        <time>2020-07-26T08:29:44Z</time>
      </trkpt>
      <trkpt lat="45.1364" lon="4.01933">
        <ele>819.18</ele>
        <time>2020-07-26T08:29:45Z</time>
      </trkpt>
      <trkpt lat="45.13642" lon="4.01939">
        <ele>818.22</ele>
        <time>2020-07-26T08:29:50Z</time>
      </trkpt>
      <trkpt lat="45.13643" lon="4.01941">
        <ele>818.22</ele>
        <time>2020-07-26T08:29:51Z</time>
      </trkpt>
      <trkpt lat="45.13644" lon="4.01943">
        <ele>818.22</ele>
        <time>2020-07-26T08:29:52Z</time>
      </trkpt>
      <trkpt lat="45.13644" lon="4.01945">
        <ele>818.22</ele>
        <time>2020-07-26T08:29:53Z</time>
      </trkpt>
      <trkpt lat="45.13645" lon="4.01947">
        <ele>818.22</ele>
        <time>2020-07-26T08:29:54Z</time>
      </trkpt>
      <trkpt lat="45.13648" lon="4.01956">
        <ele>817.74</ele>
        <time>2020-07-26T08:30:01Z</time>
      </trkpt>
      <trkpt lat="45.13649" lon="4.0196">
        <ele>817.74</ele>
        <time>2020-07-26T08:30:04Z</time>
      </trkpt>
      <trkpt lat="45.13649" lon="4.01962">
        <ele>817.74</ele>
        <time>2020-07-26T08:30:05Z</time>
      </trkpt>
      <trkpt lat="45.13649" lon="4.01964">
        <ele>817.26</ele>
        <time>2020-07-26T08:30:06Z</time>
      </trkpt>
      <trkpt lat="45.1365" lon="4.01966">
        <ele>818.22</ele>
        <time>2020-07-26T08:30:07Z</time>
      </trkpt>
      <trkpt lat="45.13651" lon="4.01967">
        <ele>817.26</ele>
        <time>2020-07-26T08:30:08Z</time>
      </trkpt>
      <trkpt lat="45.13656" lon="4.01985">
        <ele>816.78</ele>
        <time>2020-07-26T08:30:20Z</time>
      </trkpt>
      <trkpt lat="45.13663" lon="4.01989">
        <ele>816.78</ele>
        <time>2020-07-26T08:30:26Z</time>
      </trkpt>
      <trkpt lat="45.13673" lon="4.01998">
        <ele>816.78</ele>
        <time>2020-07-26T08:30:37Z</time>
      </trkpt>
      <trkpt lat="45.13685" lon="4.02009">
        <ele>817.26</ele>
        <time>2020-07-26T08:30:49Z</time>
      </trkpt>
      <trkpt lat="45.13694" lon="4.02008">
        <ele>817.26</ele>
        <time>2020-07-26T08:30:57Z</time>
      </trkpt>
      <trkpt lat="45.13696" lon="4.02008">
        <ele>817.26</ele>
        <time>2020-07-26T08:30:58Z</time>
      </trkpt>
      <trkpt lat="45.13708" lon="4.02008">
        <ele>817.74</ele>
        <time>2020-07-26T08:31:09Z</time>
      </trkpt>
      <trkpt lat="45.13729" lon="4.02007">
        <ele>818.7</ele>
        <time>2020-07-26T08:31:26Z</time>
      </trkpt>
      <trkpt lat="45.1373" lon="4.02007">
        <ele>818.22</ele>
        <time>2020-07-26T08:31:27Z</time>
      </trkpt>
      <trkpt lat="45.13731" lon="4.02007">
        <ele>818.22</ele>
        <time>2020-07-26T08:31:28Z</time>
      </trkpt>
      <trkpt lat="45.13733" lon="4.02008">
        <ele>818.7</ele>
        <time>2020-07-26T08:31:29Z</time>
      </trkpt>
      <trkpt lat="45.13734" lon="4.02008">
        <ele>819.18</ele>
        <time>2020-07-26T08:31:30Z</time>
      </trkpt>
      <trkpt lat="45.13754" lon="4.02006">
        <ele>819.18</ele>
        <time>2020-07-26T08:31:46Z</time>
      </trkpt>
      <trkpt lat="45.13768" lon="4.02003">
        <ele>820.14</ele>
        <time>2020-07-26T08:31:58Z</time>
      </trkpt>
      <trkpt lat="45.13779" lon="4.02">
        <ele>820.14</ele>
        <time>2020-07-26T08:32:10Z</time>
      </trkpt>
      <trkpt lat="45.13797" lon="4.01996">
        <ele>820.62</ele>
        <time>2020-07-26T08:32:24Z</time>
      </trkpt>
      <trkpt lat="45.13811" lon="4.01991">
        <ele>820.14</ele>
        <time>2020-07-26T08:32:37Z</time>
      </trkpt>
      <trkpt lat="45.13828" lon="4.01989">
        <ele>820.14</ele>
        <time>2020-07-26T08:32:52Z</time>
      </trkpt>
      <trkpt lat="45.13843" lon="4.01987">
        <ele>820.14</ele>
        <time>2020-07-26T08:33:04Z</time>
      </trkpt>
      <trkpt lat="45.13859" lon="4.01983">
        <ele>821.1</ele>
        <time>2020-07-26T08:33:18Z</time>
      </trkpt>
      <trkpt lat="45.13865" lon="4.01983">
        <ele>820.62</ele>
        <time>2020-07-26T08:33:25Z</time>
      </trkpt>
      <trkpt lat="45.13867" lon="4.01983">
        <ele>821.1</ele>
        <time>2020-07-26T08:33:26Z</time>
      </trkpt>
      <trkpt lat="45.13877" lon="4.01983">
        <ele>821.1</ele>
        <time>2020-07-26T08:33:41Z</time>
      </trkpt>
      <trkpt lat="45.13876" lon="4.01981">
        <ele>820.62</ele>
        <time>2020-07-26T08:34:12Z</time>
      </trkpt>
      <trkpt lat="45.13878" lon="4.01981">
        <ele>821.58</ele>
        <time>2020-07-26T08:35:06Z</time>
      </trkpt>
      <trkpt lat="45.13869" lon="4.01976">
        <ele>821.1</ele>
        <time>2020-07-26T08:35:16Z</time>
      </trkpt>
      <trkpt lat="45.13869" lon="4.01975">
        <ele>821.1</ele>
        <time>2020-07-26T08:35:17Z</time>
      </trkpt>
      <trkpt lat="45.1387" lon="4.01973">
        <ele>821.1</ele>
        <time>2020-07-26T08:35:18Z</time>
      </trkpt>
      <trkpt lat="45.13881" lon="4.01953">
        <ele>822.06</ele>
        <time>2020-07-26T08:35:33Z</time>
      </trkpt>
      <trkpt lat="45.13895" lon="4.01935">
        <ele>823.03</ele>
        <time>2020-07-26T08:35:49Z</time>
      </trkpt>
      <trkpt lat="45.13909" lon="4.01921">
        <ele>823.51</ele>
        <time>2020-07-26T08:36:04Z</time>
      </trkpt>
      <trkpt lat="45.13925" lon="4.01906">
        <ele>823.51</ele>
        <time>2020-07-26T08:36:19Z</time>
      </trkpt>
      <trkpt lat="45.13931" lon="4.019">
        <ele>824.47</ele>
        <time>2020-07-26T08:36:25Z</time>
      </trkpt>
      <trkpt lat="45.13932" lon="4.01898">
        <ele>824.47</ele>
        <time>2020-07-26T08:36:26Z</time>
      </trkpt>
      <trkpt lat="45.13933" lon="4.01897">
        <ele>824.47</ele>
        <time>2020-07-26T08:36:27Z</time>
      </trkpt>
      <trkpt lat="45.13936" lon="4.01894">
        <ele>823.99</ele>
        <time>2020-07-26T08:36:31Z</time>
      </trkpt>
      <trkpt lat="45.13938" lon="4.01893">
        <ele>824.47</ele>
        <time>2020-07-26T08:36:32Z</time>
      </trkpt>
      <trkpt lat="45.13949" lon="4.01879">
        <ele>823.99</ele>
        <time>2020-07-26T08:36:44Z</time>
      </trkpt>
      <trkpt lat="45.1396" lon="4.01856">
        <ele>824.47</ele>
        <time>2020-07-26T08:37:01Z</time>
      </trkpt>
      <trkpt lat="45.13974" lon="4.01835">
        <ele>824.95</ele>
        <time>2020-07-26T08:37:17Z</time>
      </trkpt>
      <trkpt lat="45.13984" lon="4.01813">
        <ele>824.47</ele>
        <time>2020-07-26T08:37:33Z</time>
      </trkpt>
      <trkpt lat="45.13995" lon="4.01793">
        <ele>824.95</ele>
        <time>2020-07-26T08:37:48Z</time>
      </trkpt>
      <trkpt lat="45.14005" lon="4.01775">
        <ele>824.95</ele>
        <time>2020-07-26T08:38:02Z</time>
      </trkpt>
      <trkpt lat="45.14014" lon="4.01755">
        <ele>824.95</ele>
        <time>2020-07-26T08:38:15Z</time>
      </trkpt>
      <trkpt lat="45.14021" lon="4.01742">
        <ele>825.43</ele>
        <time>2020-07-26T08:38:25Z</time>
      </trkpt>
      <trkpt lat="45.14022" lon="4.0174">
        <ele>824.95</ele>
        <time>2020-07-26T08:38:26Z</time>
      </trkpt>
      <trkpt lat="45.14029" lon="4.01727">
        <ele>825.43</ele>
        <time>2020-07-26T08:38:35Z</time>
      </trkpt>
      <trkpt lat="45.14029" lon="4.01725">
        <ele>825.43</ele>
        <time>2020-07-26T08:38:36Z</time>
      </trkpt>
      <trkpt lat="45.1403" lon="4.01724">
        <ele>825.43</ele>
        <time>2020-07-26T08:38:37Z</time>
      </trkpt>
      <trkpt lat="45.14031" lon="4.01722">
        <ele>825.43</ele>
        <time>2020-07-26T08:38:38Z</time>
      </trkpt>
      <trkpt lat="45.14032" lon="4.01722">
        <ele>825.43</ele>
        <time>2020-07-26T08:38:39Z</time>
      </trkpt>
      <trkpt lat="45.14039" lon="4.01709">
        <ele>825.43</ele>
        <time>2020-07-26T08:38:51Z</time>
      </trkpt>
      <trkpt lat="45.14042" lon="4.01702">
        <ele>825.43</ele>
        <time>2020-07-26T08:39:05Z</time>
      </trkpt>
      <trkpt lat="45.14048" lon="4.01707">
        <ele>825.91</ele>
        <time>2020-07-26T08:39:13Z</time>
      </trkpt>
      <trkpt lat="45.1406" lon="4.01721">
        <ele>826.39</ele>
        <time>2020-07-26T08:39:26Z</time>
      </trkpt>
      <trkpt lat="45.14066" lon="4.01729">
        <ele>826.87</ele>
        <time>2020-07-26T08:39:33Z</time>
      </trkpt>
      <trkpt lat="45.14067" lon="4.01731">
        <ele>826.39</ele>
        <time>2020-07-26T08:39:34Z</time>
      </trkpt>
      <trkpt lat="45.14077" lon="4.01744">
        <ele>825.91</ele>
        <time>2020-07-26T08:39:46Z</time>
      </trkpt>
      <trkpt lat="45.14078" lon="4.01745">
        <ele>825.91</ele>
        <time>2020-07-26T08:39:47Z</time>
      </trkpt>
      <trkpt lat="45.14087" lon="4.01757">
        <ele>826.87</ele>
        <time>2020-07-26T08:39:59Z</time>
      </trkpt>
      <trkpt lat="45.14097" lon="4.01773">
        <ele>826.87</ele>
        <time>2020-07-26T08:40:11Z</time>
      </trkpt>
      <trkpt lat="45.14109" lon="4.01792">
        <ele>827.35</ele>
        <time>2020-07-26T08:40:27Z</time>
      </trkpt>
      <trkpt lat="45.14116" lon="4.01814">
        <ele>827.83</ele>
        <time>2020-07-26T08:40:42Z</time>
      </trkpt>
      <trkpt lat="45.14118" lon="4.01835">
        <ele>827.83</ele>
        <time>2020-07-26T08:40:55Z</time>
      </trkpt>
      <trkpt lat="45.14119" lon="4.0186">
        <ele>828.31</ele>
        <time>2020-07-26T08:41:10Z</time>
      </trkpt>
      <trkpt lat="45.14117" lon="4.01884">
        <ele>828.31</ele>
        <time>2020-07-26T08:41:25Z</time>
      </trkpt>
      <trkpt lat="45.14116" lon="4.0191">
        <ele>828.31</ele>
        <time>2020-07-26T08:41:41Z</time>
      </trkpt>
      <trkpt lat="45.14113" lon="4.0194">
        <ele>829.27</ele>
        <time>2020-07-26T08:42:00Z</time>
      </trkpt>
      <trkpt lat="45.1411" lon="4.01957">
        <ele>829.76</ele>
        <time>2020-07-26T08:42:11Z</time>
      </trkpt>
      <trkpt lat="45.1411" lon="4.01959">
        <ele>830.24</ele>
        <time>2020-07-26T08:42:12Z</time>
      </trkpt>
      <trkpt lat="45.1411" lon="4.01961">
        <ele>830.24</ele>
        <time>2020-07-26T08:42:13Z</time>
      </trkpt>
      <trkpt lat="45.14109" lon="4.01963">
        <ele>830.24</ele>
        <time>2020-07-26T08:42:14Z</time>
      </trkpt>
      <trkpt lat="45.14109" lon="4.01964">
        <ele>830.24</ele>
        <time>2020-07-26T08:42:15Z</time>
      </trkpt>
      <trkpt lat="45.14103" lon="4.01989">
        <ele>831.68</ele>
        <time>2020-07-26T08:42:31Z</time>
      </trkpt>
      <trkpt lat="45.14101" lon="4.02012">
        <ele>832.64</ele>
        <time>2020-07-26T08:42:46Z</time>
      </trkpt>
      <trkpt lat="45.141" lon="4.02025">
        <ele>833.6</ele>
        <time>2020-07-26T08:42:55Z</time>
      </trkpt>
      <trkpt lat="45.14099" lon="4.02026">
        <ele>833.6</ele>
        <time>2020-07-26T08:42:56Z</time>
      </trkpt>
      <trkpt lat="45.14098" lon="4.02039">
        <ele>834.08</ele>
        <time>2020-07-26T08:43:04Z</time>
      </trkpt>
      <trkpt lat="45.14099" lon="4.0204">
        <ele>834.56</ele>
        <time>2020-07-26T08:43:05Z</time>
      </trkpt>
      <trkpt lat="45.14099" lon="4.02042">
        <ele>835.04</ele>
        <time>2020-07-26T08:43:06Z</time>
      </trkpt>
      <trkpt lat="45.14099" lon="4.02043">
        <ele>835.04</ele>
        <time>2020-07-26T08:43:07Z</time>
      </trkpt>
      <trkpt lat="45.14099" lon="4.02045">
        <ele>835.04</ele>
        <time>2020-07-26T08:43:08Z</time>
      </trkpt>
      <trkpt lat="45.14099" lon="4.02046">
        <ele>834.56</ele>
        <time>2020-07-26T08:43:09Z</time>
      </trkpt>
      <trkpt lat="45.14099" lon="4.02048">
        <ele>834.56</ele>
        <time>2020-07-26T08:43:10Z</time>
      </trkpt>
      <trkpt lat="45.14098" lon="4.02062">
        <ele>835.04</ele>
        <time>2020-07-26T08:43:19Z</time>
      </trkpt>
      <trkpt lat="45.14098" lon="4.02064">
        <ele>834.56</ele>
        <time>2020-07-26T08:43:20Z</time>
      </trkpt>
      <trkpt lat="45.14093" lon="4.02095">
        <ele>835.52</ele>
        <time>2020-07-26T08:43:39Z</time>
      </trkpt>
      <trkpt lat="45.14087" lon="4.02115">
        <ele>835.04</ele>
        <time>2020-07-26T08:43:51Z</time>
      </trkpt>
      <trkpt lat="45.14082" lon="4.02143">
        <ele>833.6</ele>
        <time>2020-07-26T08:44:09Z</time>
      </trkpt>
      <trkpt lat="45.14083" lon="4.02152">
        <ele>832.64</ele>
        <time>2020-07-26T08:44:16Z</time>
      </trkpt>
      <trkpt lat="45.14083" lon="4.02154">
        <ele>832.64</ele>
        <time>2020-07-26T08:44:17Z</time>
      </trkpt>
      <trkpt lat="45.14083" lon="4.02156">
        <ele>832.16</ele>
        <time>2020-07-26T08:44:18Z</time>
      </trkpt>
      <trkpt lat="45.14088" lon="4.02176">
        <ele>831.2</ele>
        <time>2020-07-26T08:44:32Z</time>
      </trkpt>
      <trkpt lat="45.14095" lon="4.0219">
        <ele>828.79</ele>
        <time>2020-07-26T08:44:46Z</time>
      </trkpt>
      <trkpt lat="45.14106" lon="4.02205">
        <ele>826.87</ele>
        <time>2020-07-26T08:45:00Z</time>
      </trkpt>
      <trkpt lat="45.14113" lon="4.02217">
        <ele>825.43</ele>
        <time>2020-07-26T08:45:11Z</time>
      </trkpt>
      <trkpt lat="45.14116" lon="4.02225">
        <ele>824.95</ele>
        <time>2020-07-26T08:45:23Z</time>
      </trkpt>
      <trkpt lat="45.1412" lon="4.0224">
        <ele>823.03</ele>
        <time>2020-07-26T08:45:35Z</time>
      </trkpt>
      <trkpt lat="45.14121" lon="4.02245">
        <ele>823.51</ele>
        <time>2020-07-26T08:45:39Z</time>
      </trkpt>
      <trkpt lat="45.14121" lon="4.02247">
        <ele>823.03</ele>
        <time>2020-07-26T08:45:40Z</time>
      </trkpt>
      <trkpt lat="45.14121" lon="4.02249">
        <ele>823.03</ele>
        <time>2020-07-26T08:45:41Z</time>
      </trkpt>
      <trkpt lat="45.1412" lon="4.02273">
        <ele>822.06</ele>
        <time>2020-07-26T08:45:57Z</time>
      </trkpt>
      <trkpt lat="45.14116" lon="4.02301">
        <ele>820.62</ele>
        <time>2020-07-26T08:46:14Z</time>
      </trkpt>
      <trkpt lat="45.14111" lon="4.0233">
        <ele>818.7</ele>
        <time>2020-07-26T08:46:32Z</time>
      </trkpt>
      <trkpt lat="45.14106" lon="4.02353">
        <ele>817.26</ele>
        <time>2020-07-26T08:46:47Z</time>
      </trkpt>
      <trkpt lat="45.14104" lon="4.02361">
        <ele>816.78</ele>
        <time>2020-07-26T08:46:53Z</time>
      </trkpt>
      <trkpt lat="45.14103" lon="4.02385">
        <ele>815.82</ele>
        <time>2020-07-26T08:47:06Z</time>
      </trkpt>
      <trkpt lat="45.14104" lon="4.02391">
        <ele>816.3</ele>
        <time>2020-07-26T08:47:09Z</time>
      </trkpt>
      <trkpt lat="45.14104" lon="4.02393">
        <ele>814.85</ele>
        <time>2020-07-26T08:47:11Z</time>
      </trkpt>
      <trkpt lat="45.14104" lon="4.02394">
        <ele>814.85</ele>
        <time>2020-07-26T08:47:12Z</time>
      </trkpt>
      <trkpt lat="45.14104" lon="4.024">
        <ele>815.34</ele>
        <time>2020-07-26T08:47:17Z</time>
      </trkpt>
      <trkpt lat="45.14105" lon="4.02402">
        <ele>814.85</ele>
        <time>2020-07-26T08:47:18Z</time>
      </trkpt>
      <trkpt lat="45.14108" lon="4.02427">
        <ele>812.45</ele>
        <time>2020-07-26T08:47:33Z</time>
      </trkpt>
      <trkpt lat="45.14108" lon="4.02428">
        <ele>812.45</ele>
        <time>2020-07-26T08:47:34Z</time>
      </trkpt>
      <trkpt lat="45.14108" lon="4.02442">
        <ele>811.01</ele>
        <time>2020-07-26T08:47:47Z</time>
      </trkpt>
      <trkpt lat="45.14105" lon="4.02454">
        <ele>810.05</ele>
        <time>2020-07-26T08:47:57Z</time>
      </trkpt>
      <trkpt lat="45.14101" lon="4.02471">
        <ele>808.61</ele>
        <time>2020-07-26T08:48:07Z</time>
      </trkpt>
      <trkpt lat="45.14101" lon="4.02472">
        <ele>807.64</ele>
        <time>2020-07-26T08:48:08Z</time>
      </trkpt>
      <trkpt lat="45.141" lon="4.02485">
        <ele>806.68</ele>
        <time>2020-07-26T08:48:17Z</time>
      </trkpt>
      <trkpt lat="45.141" lon="4.02488">
        <ele>807.16</ele>
        <time>2020-07-26T08:48:18Z</time>
      </trkpt>
      <trkpt lat="45.141" lon="4.02491">
        <ele>806.68</ele>
        <time>2020-07-26T08:48:19Z</time>
      </trkpt>
      <trkpt lat="45.14102" lon="4.02498">
        <ele>807.16</ele>
        <time>2020-07-26T08:48:23Z</time>
      </trkpt>
      <trkpt lat="45.141" lon="4.02533">
        <ele>806.2</ele>
        <time>2020-07-26T08:48:44Z</time>
      </trkpt>
      <trkpt lat="45.14091" lon="4.02538">
        <ele>806.68</ele>
        <time>2020-07-26T08:48:54Z</time>
      </trkpt>
      <trkpt lat="45.14088" lon="4.02538">
        <ele>807.16</ele>
        <time>2020-07-26T08:48:56Z</time>
      </trkpt>
      <trkpt lat="45.14087" lon="4.02537">
        <ele>807.16</ele>
        <time>2020-07-26T08:48:57Z</time>
      </trkpt>
      <trkpt lat="45.14074" lon="4.02524">
        <ele>809.09</ele>
        <time>2020-07-26T08:49:11Z</time>
      </trkpt>
      <trkpt lat="45.14063" lon="4.02502">
        <ele>811.01</ele>
        <time>2020-07-26T08:49:28Z</time>
      </trkpt>
      <trkpt lat="45.14059" lon="4.02487">
        <ele>811.49</ele>
        <time>2020-07-26T08:49:39Z</time>
      </trkpt>
      <trkpt lat="45.14051" lon="4.02474">
        <ele>811.49</ele>
        <time>2020-07-26T08:49:49Z</time>
      </trkpt>
      <trkpt lat="45.14051" lon="4.02473">
        <ele>811.49</ele>
        <time>2020-07-26T08:49:50Z</time>
      </trkpt>
      <trkpt lat="45.1405" lon="4.02472">
        <ele>811.49</ele>
        <time>2020-07-26T08:49:51Z</time>
      </trkpt>
      <trkpt lat="45.14049" lon="4.0247">
        <ele>811.97</ele>
        <time>2020-07-26T08:49:52Z</time>
      </trkpt>
      <trkpt lat="45.14049" lon="4.02468">
        <ele>811.97</ele>
        <time>2020-07-26T08:49:53Z</time>
      </trkpt>
      <trkpt lat="45.14038" lon="4.02454">
        <ele>812.93</ele>
        <time>2020-07-26T08:50:06Z</time>
      </trkpt>
      <trkpt lat="45.14027" lon="4.02444">
        <ele>814.85</ele>
        <time>2020-07-26T08:50:19Z</time>
      </trkpt>
      <trkpt lat="45.14013" lon="4.02428">
        <ele>816.78</ele>
        <time>2020-07-26T08:50:36Z</time>
      </trkpt>
      <trkpt lat="45.14002" lon="4.02415">
        <ele>818.22</ele>
        <time>2020-07-26T08:50:50Z</time>
      </trkpt>
      <trkpt lat="45.13991" lon="4.02406">
        <ele>818.7</ele>
        <time>2020-07-26T08:51:02Z</time>
      </trkpt>
      <trkpt lat="45.13979" lon="4.02397">
        <ele>819.66</ele>
        <time>2020-07-26T08:51:14Z</time>
      </trkpt>
      <trkpt lat="45.13965" lon="4.02391">
        <ele>820.14</ele>
        <time>2020-07-26T08:51:27Z</time>
      </trkpt>
      <trkpt lat="45.13964" lon="4.02391">
        <ele>820.14</ele>
        <time>2020-07-26T08:51:28Z</time>
      </trkpt>
      <trkpt lat="45.13949" lon="4.02391">
        <ele>821.1</ele>
        <time>2020-07-26T08:51:41Z</time>
      </trkpt>
      <trkpt lat="45.13932" lon="4.02394">
        <ele>821.1</ele>
        <time>2020-07-26T08:51:57Z</time>
      </trkpt>
      <trkpt lat="45.13918" lon="4.02398">
        <ele>819.18</ele>
        <time>2020-07-26T08:52:10Z</time>
      </trkpt>
      <trkpt lat="45.13912" lon="4.02401">
        <ele>818.7</ele>
        <time>2020-07-26T08:52:23Z</time>
      </trkpt>
      <trkpt lat="45.13908" lon="4.02402">
        <ele>818.7</ele>
        <time>2020-07-26T08:52:41Z</time>
      </trkpt>
      <trkpt lat="45.13893" lon="4.02406">
        <ele>817.26</ele>
        <time>2020-07-26T08:52:53Z</time>
      </trkpt>
      <trkpt lat="45.13888" lon="4.02408">
        <ele>817.26</ele>
        <time>2020-07-26T08:53:00Z</time>
      </trkpt>
      <trkpt lat="45.13886" lon="4.02408">
        <ele>816.78</ele>
        <time>2020-07-26T08:53:01Z</time>
      </trkpt>
      <trkpt lat="45.13885" lon="4.02408">
        <ele>815.82</ele>
        <time>2020-07-26T08:53:02Z</time>
      </trkpt>
      <trkpt lat="45.13883" lon="4.02408">
        <ele>815.82</ele>
        <time>2020-07-26T08:53:03Z</time>
      </trkpt>
      <trkpt lat="45.1388" lon="4.02408">
        <ele>815.82</ele>
        <time>2020-07-26T08:53:04Z</time>
      </trkpt>
      <trkpt lat="45.13867" lon="4.02411">
        <ele>814.37</ele>
        <time>2020-07-26T08:53:16Z</time>
      </trkpt>
      <trkpt lat="45.13861" lon="4.02409">
        <ele>813.41</ele>
        <time>2020-07-26T08:53:29Z</time>
      </trkpt>
      <trkpt lat="45.13847" lon="4.02411">
        <ele>812.45</ele>
        <time>2020-07-26T08:53:45Z</time>
      </trkpt>
      <trkpt lat="45.13831" lon="4.02408">
        <ele>811.01</ele>
        <time>2020-07-26T08:53:57Z</time>
      </trkpt>
      <trkpt lat="45.13817" lon="4.02408">
        <ele>809.57</ele>
        <time>2020-07-26T08:54:08Z</time>
      </trkpt>
      <trkpt lat="45.13798" lon="4.02409">
        <ele>808.61</ele>
        <time>2020-07-26T08:54:21Z</time>
      </trkpt>
      <trkpt lat="45.13781" lon="4.02416">
        <ele>808.13</ele>
        <time>2020-07-26T08:54:35Z</time>
      </trkpt>
      <trkpt lat="45.13765" lon="4.02419">
        <ele>807.16</ele>
        <time>2020-07-26T08:54:48Z</time>
      </trkpt>
      <trkpt lat="45.13751" lon="4.02427">
        <ele>805.72</ele>
        <time>2020-07-26T08:55:01Z</time>
      </trkpt>
      <trkpt lat="45.13736" lon="4.02436">
        <ele>806.2</ele>
        <time>2020-07-26T08:55:15Z</time>
      </trkpt>
      <trkpt lat="45.13717" lon="4.02446">
        <ele>804.76</ele>
        <time>2020-07-26T08:55:30Z</time>
      </trkpt>
      <trkpt lat="45.13706" lon="4.02454">
        <ele>804.76</ele>
        <time>2020-07-26T08:55:40Z</time>
      </trkpt>
      <trkpt lat="45.13693" lon="4.02459">
        <ele>804.28</ele>
        <time>2020-07-26T08:55:52Z</time>
      </trkpt>
      <trkpt lat="45.13692" lon="4.0246">
        <ele>803.32</ele>
        <time>2020-07-26T08:55:53Z</time>
      </trkpt>
      <trkpt lat="45.13684" lon="4.02481">
        <ele>803.32</ele>
        <time>2020-07-26T08:56:08Z</time>
      </trkpt>
      <trkpt lat="45.13681" lon="4.02507">
        <ele>803.32</ele>
        <time>2020-07-26T08:56:23Z</time>
      </trkpt>
      <trkpt lat="45.13677" lon="4.0253">
        <ele>803.32</ele>
        <time>2020-07-26T08:56:37Z</time>
      </trkpt>
      <trkpt lat="45.13673" lon="4.02553">
        <ele>803.32</ele>
        <time>2020-07-26T08:56:50Z</time>
      </trkpt>
      <trkpt lat="45.13661" lon="4.02578">
        <ele>804.28</ele>
        <time>2020-07-26T08:57:07Z</time>
      </trkpt>
      <trkpt lat="45.13647" lon="4.02586">
        <ele>804.28</ele>
        <time>2020-07-26T08:57:19Z</time>
      </trkpt>
      <trkpt lat="45.13641" lon="4.02588">
        <ele>804.28</ele>
        <time>2020-07-26T08:57:23Z</time>
      </trkpt>
      <trkpt lat="45.1364" lon="4.02589">
        <ele>804.76</ele>
        <time>2020-07-26T08:57:24Z</time>
      </trkpt>
      <trkpt lat="45.1364" lon="4.02589">
        <ele>804.76</ele>
        <time>2020-07-26T08:57:25Z</time>
      </trkpt>
      <trkpt lat="45.13639" lon="4.02589">
        <ele>803.8</ele>
        <time>2020-07-26T08:57:26Z</time>
      </trkpt>
      <trkpt lat="45.13637" lon="4.02589">
        <ele>803.8</ele>
        <time>2020-07-26T08:57:27Z</time>
      </trkpt>
      <trkpt lat="45.13621" lon="4.026">
        <ele>804.28</ele>
        <time>2020-07-26T08:57:42Z</time>
      </trkpt>
      <trkpt lat="45.13609" lon="4.02609">
        <ele>804.28</ele>
        <time>2020-07-26T08:57:56Z</time>
      </trkpt>
      <trkpt lat="45.1359" lon="4.02609">
        <ele>806.2</ele>
        <time>2020-07-26T08:58:13Z</time>
      </trkpt>
      <trkpt lat="45.13577" lon="4.02604">
        <ele>807.16</ele>
        <time>2020-07-26T08:58:27Z</time>
      </trkpt>
      <trkpt lat="45.13562" lon="4.02598">
        <ele>807.64</ele>
        <time>2020-07-26T08:58:41Z</time>
      </trkpt>
      <trkpt lat="45.13546" lon="4.02595">
        <ele>807.64</ele>
        <time>2020-07-26T08:58:56Z</time>
      </trkpt>
      <trkpt lat="45.13536" lon="4.0259">
        <ele>807.16</ele>
        <time>2020-07-26T08:59:09Z</time>
      </trkpt>
      <trkpt lat="45.13535" lon="4.02587">
        <ele>807.64</ele>
        <time>2020-07-26T08:59:12Z</time>
      </trkpt>
      <trkpt lat="45.13535" lon="4.02586">
        <ele>807.16</ele>
        <time>2020-07-26T08:59:13Z</time>
      </trkpt>
      <trkpt lat="45.13532" lon="4.02563">
        <ele>804.76</ele>
        <time>2020-07-26T08:59:27Z</time>
      </trkpt>
      <trkpt lat="45.13526" lon="4.02543">
        <ele>803.32</ele>
        <time>2020-07-26T08:59:41Z</time>
      </trkpt>
      <trkpt lat="45.1351" lon="4.02525">
        <ele>800.44</ele>
        <time>2020-07-26T08:59:57Z</time>
      </trkpt>
      <trkpt lat="45.13501" lon="4.02516">
        <ele>798.99</ele>
        <time>2020-07-26T09:00:09Z</time>
      </trkpt>
      <trkpt lat="45.13499" lon="4.02515">
        <ele>798.99</ele>
        <time>2020-07-26T09:00:13Z</time>
      </trkpt>
      <trkpt lat="45.13498" lon="4.02514">
        <ele>798.03</ele>
        <time>2020-07-26T09:00:14Z</time>
      </trkpt>
      <trkpt lat="45.13484" lon="4.02506">
        <ele>796.59</ele>
        <time>2020-07-26T09:00:26Z</time>
      </trkpt>
      <trkpt lat="45.13472" lon="4.02504">
        <ele>794.67</ele>
        <time>2020-07-26T09:00:38Z</time>
      </trkpt>
      <trkpt lat="45.1346" lon="4.02508">
        <ele>793.22</ele>
        <time>2020-07-26T09:00:52Z</time>
      </trkpt>
      <trkpt lat="45.13459" lon="4.02507">
        <ele>793.22</ele>
        <time>2020-07-26T09:00:53Z</time>
      </trkpt>
      <trkpt lat="45.13459" lon="4.02506">
        <ele>793.71</ele>
        <time>2020-07-26T09:00:54Z</time>
      </trkpt>
      <trkpt lat="45.13459" lon="4.02507">
        <ele>793.71</ele>
        <time>2020-07-26T09:01:04Z</time>
      </trkpt>
      <trkpt lat="45.13458" lon="4.02508">
        <ele>793.22</ele>
        <time>2020-07-26T09:01:08Z</time>
      </trkpt>
      <trkpt lat="45.13457" lon="4.02508">
        <ele>793.22</ele>
        <time>2020-07-26T09:01:09Z</time>
      </trkpt>
      <trkpt lat="45.13454" lon="4.02508">
        <ele>793.22</ele>
        <time>2020-07-26T09:01:13Z</time>
      </trkpt>
      <trkpt lat="45.13452" lon="4.02509">
        <ele>792.74</ele>
        <time>2020-07-26T09:01:14Z</time>
      </trkpt>
      <trkpt lat="45.13439" lon="4.02512">
        <ele>791.78</ele>
        <time>2020-07-26T09:01:24Z</time>
      </trkpt>
      <trkpt lat="45.1343" lon="4.02507">
        <ele>791.3</ele>
        <time>2020-07-26T09:01:33Z</time>
      </trkpt>
      <trkpt lat="45.13427" lon="4.02508">
        <ele>791.3</ele>
        <time>2020-07-26T09:01:45Z</time>
      </trkpt>
      <trkpt lat="45.13427" lon="4.02506">
        <ele>790.82</ele>
        <time>2020-07-26T09:01:54Z</time>
      </trkpt>
      <trkpt lat="45.13425" lon="4.02495">
        <ele>790.82</ele>
        <time>2020-07-26T09:02:01Z</time>
      </trkpt>
      <trkpt lat="45.13423" lon="4.02482">
        <ele>790.82</ele>
        <time>2020-07-26T09:02:08Z</time>
      </trkpt>
      <trkpt lat="45.13422" lon="4.0248">
        <ele>791.3</ele>
        <time>2020-07-26T09:02:09Z</time>
      </trkpt>
      <trkpt lat="45.13419" lon="4.02458">
        <ele>790.82</ele>
        <time>2020-07-26T09:02:23Z</time>
      </trkpt>
      <trkpt lat="45.13417" lon="4.02448">
        <ele>791.3</ele>
        <time>2020-07-26T09:02:29Z</time>
      </trkpt>
      <trkpt lat="45.13407" lon="4.02435">
        <ele>791.78</ele>
        <time>2020-07-26T09:02:41Z</time>
      </trkpt>
      <trkpt lat="45.13404" lon="4.02433">
        <ele>792.26</ele>
        <time>2020-07-26T09:02:45Z</time>
      </trkpt>
      <trkpt lat="45.13392" lon="4.02428">
        <ele>793.22</ele>
        <time>2020-07-26T09:02:56Z</time>
      </trkpt>
      <trkpt lat="45.13377" lon="4.02423">
        <ele>795.15</ele>
        <time>2020-07-26T09:03:12Z</time>
      </trkpt>
      <trkpt lat="45.13365" lon="4.0242">
        <ele>796.59</ele>
        <time>2020-07-26T09:03:25Z</time>
      </trkpt>
      <trkpt lat="45.1336" lon="4.02416">
        <ele>796.59</ele>
        <time>2020-07-26T09:03:34Z</time>
      </trkpt>
      <trkpt lat="45.13356" lon="4.02412">
        <ele>797.55</ele>
        <time>2020-07-26T09:03:45Z</time>
      </trkpt>
      <trkpt lat="45.13355" lon="4.02411">
        <ele>797.07</ele>
        <time>2020-07-26T09:03:46Z</time>
      </trkpt>
      <trkpt lat="45.13346" lon="4.02399">
        <ele>796.59</ele>
        <time>2020-07-26T09:03:58Z</time>
      </trkpt>
      <trkpt lat="45.13335" lon="4.02383">
        <ele>795.63</ele>
        <time>2020-07-26T09:04:09Z</time>
      </trkpt>
      <trkpt lat="45.13326" lon="4.02367">
        <ele>794.19</ele>
        <time>2020-07-26T09:04:21Z</time>
      </trkpt>
      <trkpt lat="45.13324" lon="4.02364">
        <ele>793.71</ele>
        <time>2020-07-26T09:04:23Z</time>
      </trkpt>
      <trkpt lat="45.13323" lon="4.02363">
        <ele>793.22</ele>
        <time>2020-07-26T09:04:24Z</time>
      </trkpt>
      <trkpt lat="45.13322" lon="4.02361">
        <ele>793.71</ele>
        <time>2020-07-26T09:04:25Z</time>
      </trkpt>
      <trkpt lat="45.13312" lon="4.02348">
        <ele>792.26</ele>
        <time>2020-07-26T09:04:38Z</time>
      </trkpt>
      <trkpt lat="45.1331" lon="4.02345">
        <ele>790.82</ele>
        <time>2020-07-26T09:04:41Z</time>
      </trkpt>
      <trkpt lat="45.13302" lon="4.02333">
        <ele>788.9</ele>
        <time>2020-07-26T09:04:51Z</time>
      </trkpt>
      <trkpt lat="45.13296" lon="4.0232">
        <ele>786.02</ele>
        <time>2020-07-26T09:05:02Z</time>
      </trkpt>
      <trkpt lat="45.13298" lon="4.0232">
        <ele>786.02</ele>
        <time>2020-07-26T09:05:05Z</time>
      </trkpt>
      <trkpt lat="45.13307" lon="4.02318">
        <ele>786.02</ele>
        <time>2020-07-26T09:05:12Z</time>
      </trkpt>
      <trkpt lat="45.13317" lon="4.02323">
        <ele>786.02</ele>
        <time>2020-07-26T09:05:21Z</time>
      </trkpt>
      <trkpt lat="45.13334" lon="4.02331">
        <ele>786.02</ele>
        <time>2020-07-26T09:05:35Z</time>
      </trkpt>
      <trkpt lat="45.13353" lon="4.02346">
        <ele>784.57</ele>
        <time>2020-07-26T09:05:51Z</time>
      </trkpt>
      <trkpt lat="45.13362" lon="4.02355">
        <ele>783.61</ele>
        <time>2020-07-26T09:06:03Z</time>
      </trkpt>
      <trkpt lat="45.13376" lon="4.02368">
        <ele>783.61</ele>
        <time>2020-07-26T09:06:19Z</time>
      </trkpt>
      <trkpt lat="45.13397" lon="4.02376">
        <ele>783.61</ele>
        <time>2020-07-26T09:06:35Z</time>
      </trkpt>
      <trkpt lat="45.13417" lon="4.02375">
        <ele>782.65</ele>
        <time>2020-07-26T09:06:52Z</time>
      </trkpt>
      <trkpt lat="45.13436" lon="4.02373">
        <ele>782.17</ele>
        <time>2020-07-26T09:07:08Z</time>
      </trkpt>
      <trkpt lat="45.13452" lon="4.02364">
        <ele>782.17</ele>
        <time>2020-07-26T09:07:19Z</time>
      </trkpt>
      <trkpt lat="45.13456" lon="4.02361">
        <ele>782.17</ele>
        <time>2020-07-26T09:07:30Z</time>
      </trkpt>
      <trkpt lat="45.13461" lon="4.02354">
        <ele>781.69</ele>
        <time>2020-07-26T09:07:37Z</time>
      </trkpt>
      <trkpt lat="45.13468" lon="4.02349">
        <ele>781.21</ele>
        <time>2020-07-26T09:07:45Z</time>
      </trkpt>
      <trkpt lat="45.1347" lon="4.02346">
        <ele>781.21</ele>
        <time>2020-07-26T09:07:47Z</time>
      </trkpt>
      <trkpt lat="45.13471" lon="4.02345">
        <ele>781.21</ele>
        <time>2020-07-26T09:07:48Z</time>
      </trkpt>
      <trkpt lat="45.13472" lon="4.02343">
        <ele>781.21</ele>
        <time>2020-07-26T09:07:49Z</time>
      </trkpt>
      <trkpt lat="45.13472" lon="4.02337">
        <ele>781.69</ele>
        <time>2020-07-26T09:08:02Z</time>
      </trkpt>
      <trkpt lat="45.13484" lon="4.02328">
        <ele>781.21</ele>
        <time>2020-07-26T09:08:24Z</time>
      </trkpt>
      <trkpt lat="45.13493" lon="4.02307">
        <ele>781.21</ele>
        <time>2020-07-26T09:08:38Z</time>
      </trkpt>
      <trkpt lat="45.13493" lon="4.02301">
        <ele>780.73</ele>
        <time>2020-07-26T09:08:42Z</time>
      </trkpt>
      <trkpt lat="45.13493" lon="4.023">
        <ele>780.73</ele>
        <time>2020-07-26T09:08:43Z</time>
      </trkpt>
      <trkpt lat="45.13494" lon="4.02297">
        <ele>779.77</ele>
        <time>2020-07-26T09:08:44Z</time>
      </trkpt>
      <trkpt lat="45.13495" lon="4.02295">
        <ele>780.25</ele>
        <time>2020-07-26T09:08:45Z</time>
      </trkpt>
      <trkpt lat="45.13495" lon="4.02293">
        <ele>780.25</ele>
        <time>2020-07-26T09:08:46Z</time>
      </trkpt>
      <trkpt lat="45.13499" lon="4.02276">
        <ele>780.25</ele>
        <time>2020-07-26T09:08:56Z</time>
      </trkpt>
      <trkpt lat="45.13503" lon="4.02266">
        <ele>779.29</ele>
        <time>2020-07-26T09:09:10Z</time>
      </trkpt>
      <trkpt lat="45.13501" lon="4.02266">
        <ele>780.25</ele>
        <time>2020-07-26T09:09:28Z</time>
      </trkpt>
      <trkpt lat="45.13505" lon="4.02267">
        <ele>780.73</ele>
        <time>2020-07-26T09:10:04Z</time>
      </trkpt>
      <trkpt lat="45.13508" lon="4.0227">
        <ele>780.73</ele>
        <time>2020-07-26T09:10:26Z</time>
      </trkpt>
      <trkpt lat="45.13504" lon="4.02268">
        <ele>780.25</ele>
        <time>2020-07-26T09:11:02Z</time>
      </trkpt>
      <trkpt lat="45.13503" lon="4.02268">
        <ele>780.73</ele>
        <time>2020-07-26T09:11:21Z</time>
      </trkpt>
      <trkpt lat="45.13503" lon="4.02264">
        <ele>780.73</ele>
        <time>2020-07-26T09:11:23Z</time>
      </trkpt>
      <trkpt lat="45.13502" lon="4.02261">
        <ele>781.21</ele>
        <time>2020-07-26T09:11:24Z</time>
      </trkpt>
      <trkpt lat="45.13504" lon="4.02243">
        <ele>780.25</ele>
        <time>2020-07-26T09:11:36Z</time>
      </trkpt>
      <trkpt lat="45.13499" lon="4.02224">
        <ele>779.77</ele>
        <time>2020-07-26T09:11:50Z</time>
      </trkpt>
      <trkpt lat="45.13499" lon="4.02222">
        <ele>780.25</ele>
        <time>2020-07-26T09:11:51Z</time>
      </trkpt>
      <trkpt lat="45.13499" lon="4.0222">
        <ele>779.77</ele>
        <time>2020-07-26T09:11:52Z</time>
      </trkpt>
      <trkpt lat="45.13498" lon="4.02218">
        <ele>780.25</ele>
        <time>2020-07-26T09:11:53Z</time>
      </trkpt>
      <trkpt lat="45.13498" lon="4.02216">
        <ele>779.77</ele>
        <time>2020-07-26T09:11:54Z</time>
      </trkpt>
      <trkpt lat="45.13498" lon="4.02214">
        <ele>779.29</ele>
        <time>2020-07-26T09:11:55Z</time>
      </trkpt>
      <trkpt lat="45.13497" lon="4.02212">
        <ele>779.77</ele>
        <time>2020-07-26T09:11:56Z</time>
      </trkpt>
      <trkpt lat="45.13497" lon="4.0221">
        <ele>779.77</ele>
        <time>2020-07-26T09:11:57Z</time>
      </trkpt>
      <trkpt lat="45.13489" lon="4.02193">
        <ele>779.29</ele>
        <time>2020-07-26T09:12:09Z</time>
      </trkpt>
      <trkpt lat="45.1348" lon="4.02176">
        <ele>779.29</ele>
        <time>2020-07-26T09:12:21Z</time>
      </trkpt>
      <trkpt lat="45.13479" lon="4.02174">
        <ele>778.81</ele>
        <time>2020-07-26T09:12:22Z</time>
      </trkpt>
      <trkpt lat="45.13475" lon="4.02166">
        <ele>778.32</ele>
        <time>2020-07-26T09:12:29Z</time>
      </trkpt>
      <trkpt lat="45.13458" lon="4.02147">
        <ele>778.32</ele>
        <time>2020-07-26T09:12:41Z</time>
      </trkpt>
      <trkpt lat="45.13445" lon="4.02134">
        <ele>777.84</ele>
        <time>2020-07-26T09:12:52Z</time>
      </trkpt>
      <trkpt lat="45.13443" lon="4.02133">
        <ele>777.84</ele>
        <time>2020-07-26T09:12:53Z</time>
      </trkpt>
      <trkpt lat="45.13441" lon="4.02133">
        <ele>777.36</ele>
        <time>2020-07-26T09:12:54Z</time>
      </trkpt>
      <trkpt lat="45.1344" lon="4.02132">
        <ele>777.84</ele>
        <time>2020-07-26T09:12:55Z</time>
      </trkpt>
      <trkpt lat="45.13438" lon="4.02131">
        <ele>777.84</ele>
        <time>2020-07-26T09:12:56Z</time>
      </trkpt>
      <trkpt lat="45.13436" lon="4.0213">
        <ele>777.36</ele>
        <time>2020-07-26T09:12:57Z</time>
      </trkpt>
      <trkpt lat="45.13426" lon="4.02123">
        <ele>776.88</ele>
        <time>2020-07-26T09:13:07Z</time>
      </trkpt>
      <trkpt lat="45.13408" lon="4.02119">
        <ele>777.84</ele>
        <time>2020-07-26T09:13:22Z</time>
      </trkpt>
      <trkpt lat="45.13394" lon="4.02117">
        <ele>776.88</ele>
        <time>2020-07-26T09:13:33Z</time>
      </trkpt>
      <trkpt lat="45.13382" lon="4.02115">
        <ele>775.92</ele>
        <time>2020-07-26T09:13:45Z</time>
      </trkpt>
      <trkpt lat="45.13381" lon="4.02115">
        <ele>775.44</ele>
        <time>2020-07-26T09:13:46Z</time>
      </trkpt>
      <trkpt lat="45.1338" lon="4.02115">
        <ele>775.92</ele>
        <time>2020-07-26T09:13:47Z</time>
      </trkpt>
      <trkpt lat="45.13378" lon="4.02114">
        <ele>775.92</ele>
        <time>2020-07-26T09:13:48Z</time>
      </trkpt>
      <trkpt lat="45.13362" lon="4.0211">
        <ele>775.92</ele>
        <time>2020-07-26T09:14:00Z</time>
      </trkpt>
      <trkpt lat="45.13346" lon="4.02108">
        <ele>775.44</ele>
        <time>2020-07-26T09:14:11Z</time>
      </trkpt>
      <trkpt lat="45.13345" lon="4.02108">
        <ele>775.44</ele>
        <time>2020-07-26T09:14:12Z</time>
      </trkpt>
      <trkpt lat="45.13343" lon="4.02108">
        <ele>775.44</ele>
        <time>2020-07-26T09:14:13Z</time>
      </trkpt>
      <trkpt lat="45.13342" lon="4.02107">
        <ele>775.44</ele>
        <time>2020-07-26T09:14:14Z</time>
      </trkpt>
      <trkpt lat="45.1333" lon="4.02107">
        <ele>775.44</ele>
        <time>2020-07-26T09:14:26Z</time>
      </trkpt>
      <trkpt lat="45.13321" lon="4.02106">
        <ele>774.96</ele>
        <time>2020-07-26T09:14:32Z</time>
      </trkpt>
      <trkpt lat="45.13319" lon="4.02106">
        <ele>774.96</ele>
        <time>2020-07-26T09:14:33Z</time>
      </trkpt>
      <trkpt lat="45.13316" lon="4.02106">
        <ele>774.96</ele>
        <time>2020-07-26T09:14:34Z</time>
      </trkpt>
      <trkpt lat="45.13314" lon="4.02106">
        <ele>774.48</ele>
        <time>2020-07-26T09:14:35Z</time>
      </trkpt>
      <trkpt lat="45.13312" lon="4.02107">
        <ele>774.96</ele>
        <time>2020-07-26T09:14:36Z</time>
      </trkpt>
      <trkpt lat="45.1331" lon="4.02107">
        <ele>774.96</ele>
        <time>2020-07-26T09:14:37Z</time>
      </trkpt>
      <trkpt lat="45.13309" lon="4.02108">
        <ele>774.96</ele>
        <time>2020-07-26T09:14:38Z</time>
      </trkpt>
      <trkpt lat="45.13308" lon="4.02109">
        <ele>774.96</ele>
        <time>2020-07-26T09:14:39Z</time>
      </trkpt>
      <trkpt lat="45.133" lon="4.02111">
        <ele>774</ele>
        <time>2020-07-26T09:14:47Z</time>
      </trkpt>
      <trkpt lat="45.13299" lon="4.02111">
        <ele>774.48</ele>
        <time>2020-07-26T09:14:48Z</time>
      </trkpt>
      <trkpt lat="45.13297" lon="4.02112">
        <ele>774.48</ele>
        <time>2020-07-26T09:14:49Z</time>
      </trkpt>
      <trkpt lat="45.13296" lon="4.02112">
        <ele>774.48</ele>
        <time>2020-07-26T09:14:50Z</time>
      </trkpt>
      <trkpt lat="45.13288" lon="4.02115">
        <ele>774</ele>
        <time>2020-07-26T09:15:01Z</time>
      </trkpt>
      <trkpt lat="45.13273" lon="4.02124">
        <ele>774</ele>
        <time>2020-07-26T09:15:16Z</time>
      </trkpt>
      <trkpt lat="45.13264" lon="4.02129">
        <ele>773.04</ele>
        <time>2020-07-26T09:15:24Z</time>
      </trkpt>
      <trkpt lat="45.13246" lon="4.02133">
        <ele>772.08</ele>
        <time>2020-07-26T09:15:38Z</time>
      </trkpt>
      <trkpt lat="45.1324" lon="4.02137">
        <ele>772.08</ele>
        <time>2020-07-26T09:15:46Z</time>
      </trkpt>
      <trkpt lat="45.13226" lon="4.0214">
        <ele>773.04</ele>
        <time>2020-07-26T09:15:57Z</time>
      </trkpt>
      <trkpt lat="45.13207" lon="4.02141">
        <ele>771.6</ele>
        <time>2020-07-26T09:16:11Z</time>
      </trkpt>
      <trkpt lat="45.13202" lon="4.02141">
        <ele>772.08</ele>
        <time>2020-07-26T09:16:15Z</time>
      </trkpt>
      <trkpt lat="45.13201" lon="4.02141">
        <ele>771.6</ele>
        <time>2020-07-26T09:16:16Z</time>
      </trkpt>
      <trkpt lat="45.13199" lon="4.0214">
        <ele>771.6</ele>
        <time>2020-07-26T09:16:17Z</time>
      </trkpt>
      <trkpt lat="45.13198" lon="4.0214">
        <ele>771.6</ele>
        <time>2020-07-26T09:16:18Z</time>
      </trkpt>
      <trkpt lat="45.13196" lon="4.02139">
        <ele>771.6</ele>
        <time>2020-07-26T09:16:19Z</time>
      </trkpt>
      <trkpt lat="45.13195" lon="4.02138">
        <ele>771.6</ele>
        <time>2020-07-26T09:16:20Z</time>
      </trkpt>
      <trkpt lat="45.13194" lon="4.02138">
        <ele>772.08</ele>
        <time>2020-07-26T09:16:21Z</time>
      </trkpt>
      <trkpt lat="45.13178" lon="4.02134">
        <ele>771.6</ele>
        <time>2020-07-26T09:16:33Z</time>
      </trkpt>
      <trkpt lat="45.13169" lon="4.02128">
        <ele>771.11</ele>
        <time>2020-07-26T09:16:50Z</time>
      </trkpt>
      <trkpt lat="45.13172" lon="4.02132">
        <ele>770.63</ele>
        <time>2020-07-26T09:17:04Z</time>
      </trkpt>
      <trkpt lat="45.13159" lon="4.02126">
        <ele>770.63</ele>
        <time>2020-07-26T09:17:17Z</time>
      </trkpt>
      <trkpt lat="45.13144" lon="4.02122">
        <ele>770.15</ele>
        <time>2020-07-26T09:17:30Z</time>
      </trkpt>
      <trkpt lat="45.13124" lon="4.02121">
        <ele>769.67</ele>
        <time>2020-07-26T09:17:41Z</time>
      </trkpt>
      <trkpt lat="45.1311" lon="4.02122">
        <ele>769.67</ele>
        <time>2020-07-26T09:17:54Z</time>
      </trkpt>
      <trkpt lat="45.13109" lon="4.02123">
        <ele>769.19</ele>
        <time>2020-07-26T09:17:55Z</time>
      </trkpt>
      <trkpt lat="45.13107" lon="4.02124">
        <ele>769.67</ele>
        <time>2020-07-26T09:17:56Z</time>
      </trkpt>
      <trkpt lat="45.13091" lon="4.02127">
        <ele>769.67</ele>
        <time>2020-07-26T09:18:08Z</time>
      </trkpt>
      <trkpt lat="45.13076" lon="4.02132">
        <ele>768.71</ele>
        <time>2020-07-26T09:18:20Z</time>
      </trkpt>
      <trkpt lat="45.13066" lon="4.02133">
        <ele>768.23</ele>
        <time>2020-07-26T09:18:28Z</time>
      </trkpt>
      <trkpt lat="45.13059" lon="4.02135">
        <ele>768.23</ele>
        <time>2020-07-26T09:18:35Z</time>
      </trkpt>
      <trkpt lat="45.13051" lon="4.02135">
        <ele>768.23</ele>
        <time>2020-07-26T09:18:43Z</time>
      </trkpt>
      <trkpt lat="45.13049" lon="4.02135">
        <ele>767.75</ele>
        <time>2020-07-26T09:18:44Z</time>
      </trkpt>
      <trkpt lat="45.13048" lon="4.02135">
        <ele>768.23</ele>
        <time>2020-07-26T09:18:45Z</time>
      </trkpt>
      <trkpt lat="45.13033" lon="4.02134">
        <ele>767.75</ele>
        <time>2020-07-26T09:18:57Z</time>
      </trkpt>
      <trkpt lat="45.13012" lon="4.0213">
        <ele>766.79</ele>
        <time>2020-07-26T09:19:14Z</time>
      </trkpt>
      <trkpt lat="45.12993" lon="4.0213">
        <ele>766.79</ele>
        <time>2020-07-26T09:19:31Z</time>
      </trkpt>
      <trkpt lat="45.12993" lon="4.02131">
        <ele>766.79</ele>
        <time>2020-07-26T09:19:35Z</time>
      </trkpt>
      <trkpt lat="45.12991" lon="4.0213">
        <ele>766.79</ele>
        <time>2020-07-26T09:19:36Z</time>
      </trkpt>
      <trkpt lat="45.12975" lon="4.02127">
        <ele>765.83</ele>
        <time>2020-07-26T09:19:49Z</time>
      </trkpt>
      <trkpt lat="45.12973" lon="4.02127">
        <ele>765.83</ele>
        <time>2020-07-26T09:19:51Z</time>
      </trkpt>
      <trkpt lat="45.12967" lon="4.02129">
        <ele>765.83</ele>
        <time>2020-07-26T09:20:00Z</time>
      </trkpt>
      <trkpt lat="45.12965" lon="4.02128">
        <ele>765.35</ele>
        <time>2020-07-26T09:20:21Z</time>
      </trkpt>
      <trkpt lat="45.12961" lon="4.02124">
        <ele>765.35</ele>
        <time>2020-07-26T09:20:25Z</time>
      </trkpt>
      <trkpt lat="45.12941" lon="4.02119">
        <ele>765.35</ele>
        <time>2020-07-26T09:20:41Z</time>
      </trkpt>
      <trkpt lat="45.1294" lon="4.0212">
        <ele>765.35</ele>
        <time>2020-07-26T09:20:42Z</time>
      </trkpt>
      <trkpt lat="45.12939" lon="4.02121">
        <ele>764.87</ele>
        <time>2020-07-26T09:20:43Z</time>
      </trkpt>
      <trkpt lat="45.12937" lon="4.0212">
        <ele>763.9</ele>
        <time>2020-07-26T09:20:45Z</time>
      </trkpt>
      <trkpt lat="45.12936" lon="4.02121">
        <ele>764.87</ele>
        <time>2020-07-26T09:20:47Z</time>
      </trkpt>
      <trkpt lat="45.12934" lon="4.02121">
        <ele>764.87</ele>
        <time>2020-07-26T09:20:48Z</time>
      </trkpt>
      <trkpt lat="45.12933" lon="4.02121">
        <ele>764.39</ele>
        <time>2020-07-26T09:20:49Z</time>
      </trkpt>
      <trkpt lat="45.12932" lon="4.02121">
        <ele>765.35</ele>
        <time>2020-07-26T09:20:50Z</time>
      </trkpt>
      <trkpt lat="45.12931" lon="4.02121">
        <ele>764.87</ele>
        <time>2020-07-26T09:20:51Z</time>
      </trkpt>
      <trkpt lat="45.12916" lon="4.02115">
        <ele>764.87</ele>
        <time>2020-07-26T09:21:04Z</time>
      </trkpt>
      <trkpt lat="45.12909" lon="4.02109">
        <ele>764.87</ele>
        <time>2020-07-26T09:21:11Z</time>
      </trkpt>
      <trkpt lat="45.12896" lon="4.02093">
        <ele>764.87</ele>
        <time>2020-07-26T09:21:24Z</time>
      </trkpt>
      <trkpt lat="45.12893" lon="4.02091">
        <ele>764.39</ele>
        <time>2020-07-26T09:21:27Z</time>
      </trkpt>
      <trkpt lat="45.12891" lon="4.0209">
        <ele>764.39</ele>
        <time>2020-07-26T09:21:28Z</time>
      </trkpt>
      <trkpt lat="45.1289" lon="4.02089">
        <ele>764.87</ele>
        <time>2020-07-26T09:21:29Z</time>
      </trkpt>
      <trkpt lat="45.12887" lon="4.02083">
        <ele>763.9</ele>
        <time>2020-07-26T09:21:39Z</time>
      </trkpt>
      <trkpt lat="45.12883" lon="4.02076">
        <ele>763.9</ele>
        <time>2020-07-26T09:21:51Z</time>
      </trkpt>
      <trkpt lat="45.12876" lon="4.02062">
        <ele>764.39</ele>
        <time>2020-07-26T09:22:04Z</time>
      </trkpt>
      <trkpt lat="45.12869" lon="4.02047">
        <ele>763.42</ele>
        <time>2020-07-26T09:22:17Z</time>
      </trkpt>
      <trkpt lat="45.12867" lon="4.02041">
        <ele>763.9</ele>
        <time>2020-07-26T09:22:22Z</time>
      </trkpt>
      <trkpt lat="45.12866" lon="4.02039">
        <ele>763.42</ele>
        <time>2020-07-26T09:22:23Z</time>
      </trkpt>
      <trkpt lat="45.12866" lon="4.02037">
        <ele>763.9</ele>
        <time>2020-07-26T09:22:24Z</time>
      </trkpt>
      <trkpt lat="45.12866" lon="4.02035">
        <ele>763.42</ele>
        <time>2020-07-26T09:22:25Z</time>
      </trkpt>
      <trkpt lat="45.12864" lon="4.02031">
        <ele>763.42</ele>
        <time>2020-07-26T09:22:29Z</time>
      </trkpt>
      <trkpt lat="45.12864" lon="4.02029">
        <ele>763.42</ele>
        <time>2020-07-26T09:22:30Z</time>
      </trkpt>
      <trkpt lat="45.12863" lon="4.02027">
        <ele>763.42</ele>
        <time>2020-07-26T09:22:31Z</time>
      </trkpt>
      <trkpt lat="45.12857" lon="4.02003">
        <ele>763.42</ele>
        <time>2020-07-26T09:22:46Z</time>
      </trkpt>
      <trkpt lat="45.12857" lon="4.01974">
        <ele>763.9</ele>
        <time>2020-07-26T09:23:04Z</time>
      </trkpt>
      <trkpt lat="45.12856" lon="4.01959">
        <ele>763.9</ele>
        <time>2020-07-26T09:23:19Z</time>
      </trkpt>
      <trkpt lat="45.12854" lon="4.01942">
        <ele>762.94</ele>
        <time>2020-07-26T09:23:32Z</time>
      </trkpt>
      <trkpt lat="45.12852" lon="4.01914">
        <ele>762.46</ele>
        <time>2020-07-26T09:23:48Z</time>
      </trkpt>
      <trkpt lat="45.12849" lon="4.01886">
        <ele>761.98</ele>
        <time>2020-07-26T09:24:01Z</time>
      </trkpt>
      <trkpt lat="45.12839" lon="4.01859">
        <ele>762.46</ele>
        <time>2020-07-26T09:24:19Z</time>
      </trkpt>
      <trkpt lat="45.12822" lon="4.01831">
        <ele>761.02</ele>
        <time>2020-07-26T09:24:37Z</time>
      </trkpt>
      <trkpt lat="45.1281" lon="4.01813">
        <ele>761.02</ele>
        <time>2020-07-26T09:24:50Z</time>
      </trkpt>
      <trkpt lat="45.12798" lon="4.01795">
        <ele>760.06</ele>
        <time>2020-07-26T09:25:05Z</time>
      </trkpt>
      <trkpt lat="45.12796" lon="4.01791">
        <ele>759.58</ele>
        <time>2020-07-26T09:25:09Z</time>
      </trkpt>
      <trkpt lat="45.12795" lon="4.01788">
        <ele>760.06</ele>
        <time>2020-07-26T09:25:10Z</time>
      </trkpt>
      <trkpt lat="45.12793" lon="4.01786">
        <ele>760.06</ele>
        <time>2020-07-26T09:25:11Z</time>
      </trkpt>
      <trkpt lat="45.12783" lon="4.01759">
        <ele>759.1</ele>
        <time>2020-07-26T09:25:27Z</time>
      </trkpt>
      <trkpt lat="45.1278" lon="4.01754">
        <ele>759.1</ele>
        <time>2020-07-26T09:25:33Z</time>
      </trkpt>
      <trkpt lat="45.1278" lon="4.01752">
        <ele>759.1</ele>
        <time>2020-07-26T09:25:34Z</time>
      </trkpt>
      <trkpt lat="45.12779" lon="4.01746">
        <ele>759.1</ele>
        <time>2020-07-26T09:25:38Z</time>
      </trkpt>
      <trkpt lat="45.12772" lon="4.01721">
        <ele>757.66</ele>
        <time>2020-07-26T09:25:53Z</time>
      </trkpt>
      <trkpt lat="45.12767" lon="4.01701">
        <ele>757.18</ele>
        <time>2020-07-26T09:26:06Z</time>
      </trkpt>
      <trkpt lat="45.12766" lon="4.017">
        <ele>757.18</ele>
        <time>2020-07-26T09:26:07Z</time>
      </trkpt>
      <trkpt lat="45.12766" lon="4.01695">
        <ele>757.18</ele>
        <time>2020-07-26T09:26:16Z</time>
      </trkpt>
      <trkpt lat="45.12762" lon="4.01681">
        <ele>757.18</ele>
        <time>2020-07-26T09:26:27Z</time>
      </trkpt>
      <trkpt lat="45.12761" lon="4.01679">
        <ele>757.66</ele>
        <time>2020-07-26T09:26:28Z</time>
      </trkpt>
      <trkpt lat="45.12756" lon="4.01663">
        <ele>756.21</ele>
        <time>2020-07-26T09:26:40Z</time>
      </trkpt>
      <trkpt lat="45.12748" lon="4.01647">
        <ele>755.73</ele>
        <time>2020-07-26T09:26:51Z</time>
      </trkpt>
      <trkpt lat="45.12738" lon="4.01634">
        <ele>755.73</ele>
        <time>2020-07-26T09:27:02Z</time>
      </trkpt>
      <trkpt lat="45.12729" lon="4.01621">
        <ele>755.25</ele>
        <time>2020-07-26T09:27:13Z</time>
      </trkpt>
      <trkpt lat="45.12714" lon="4.01607">
        <ele>754.29</ele>
        <time>2020-07-26T09:27:27Z</time>
      </trkpt>
      <trkpt lat="45.127" lon="4.01599">
        <ele>753.33</ele>
        <time>2020-07-26T09:27:39Z</time>
      </trkpt>
      <trkpt lat="45.12692" lon="4.01596">
        <ele>753.33</ele>
        <time>2020-07-26T09:27:48Z</time>
      </trkpt>
      <trkpt lat="45.12691" lon="4.01595">
        <ele>753.33</ele>
        <time>2020-07-26T09:27:49Z</time>
      </trkpt>
      <trkpt lat="45.12681" lon="4.01592">
        <ele>753.81</ele>
        <time>2020-07-26T09:28:02Z</time>
      </trkpt>
      <trkpt lat="45.12673" lon="4.01591">
        <ele>752.85</ele>
        <time>2020-07-26T09:28:11Z</time>
      </trkpt>
      <trkpt lat="45.12671" lon="4.01591">
        <ele>752.37</ele>
        <time>2020-07-26T09:28:12Z</time>
      </trkpt>
      <trkpt lat="45.12654" lon="4.01591">
        <ele>752.37</ele>
        <time>2020-07-26T09:28:25Z</time>
      </trkpt>
      <trkpt lat="45.12641" lon="4.01592">
        <ele>751.89</ele>
        <time>2020-07-26T09:28:34Z</time>
      </trkpt>
      <trkpt lat="45.12634" lon="4.01592">
        <ele>751.41</ele>
        <time>2020-07-26T09:28:40Z</time>
      </trkpt>
      <trkpt lat="45.12613" lon="4.01591">
        <ele>750.93</ele>
        <time>2020-07-26T09:28:57Z</time>
      </trkpt>
      <trkpt lat="45.12597" lon="4.01594">
        <ele>749.97</ele>
        <time>2020-07-26T09:29:13Z</time>
      </trkpt>
      <trkpt lat="45.12575" lon="4.016">
        <ele>749</ele>
        <time>2020-07-26T09:29:29Z</time>
      </trkpt>
      <trkpt lat="45.12559" lon="4.01598">
        <ele>749.49</ele>
        <time>2020-07-26T09:29:45Z</time>
      </trkpt>
      <trkpt lat="45.12555" lon="4.01601">
        <ele>749.49</ele>
        <time>2020-07-26T09:29:58Z</time>
      </trkpt>
      <trkpt lat="45.12554" lon="4.01602">
        <ele>749.97</ele>
        <time>2020-07-26T09:29:59Z</time>
      </trkpt>
      <trkpt lat="45.12553" lon="4.01603">
        <ele>749.97</ele>
        <time>2020-07-26T09:30:00Z</time>
      </trkpt>
      <trkpt lat="45.12536" lon="4.01602">
        <ele>749</ele>
        <time>2020-07-26T09:30:14Z</time>
      </trkpt>
      <trkpt lat="45.12517" lon="4.01599">
        <ele>748.04</ele>
        <time>2020-07-26T09:30:29Z</time>
      </trkpt>
      <trkpt lat="45.12503" lon="4.01594">
        <ele>748.04</ele>
        <time>2020-07-26T09:30:42Z</time>
      </trkpt>
      <trkpt lat="45.12486" lon="4.01583">
        <ele>746.6</ele>
        <time>2020-07-26T09:30:57Z</time>
      </trkpt>
      <trkpt lat="45.12471" lon="4.01572">
        <ele>746.6</ele>
        <time>2020-07-26T09:31:13Z</time>
      </trkpt>
      <trkpt lat="45.12471" lon="4.01573">
        <ele>746.6</ele>
        <time>2020-07-26T09:31:29Z</time>
      </trkpt>
      <trkpt lat="45.12469" lon="4.01569">
        <ele>746.6</ele>
        <time>2020-07-26T09:31:33Z</time>
      </trkpt>
      <trkpt lat="45.12468" lon="4.01568">
        <ele>746.6</ele>
        <time>2020-07-26T09:31:34Z</time>
      </trkpt>
      <trkpt lat="45.12456" lon="4.01544">
        <ele>745.64</ele>
        <time>2020-07-26T09:31:51Z</time>
      </trkpt>
      <trkpt lat="45.12452" lon="4.01531">
        <ele>745.16</ele>
        <time>2020-07-26T09:32:01Z</time>
      </trkpt>
      <trkpt lat="45.12451" lon="4.01529">
        <ele>745.16</ele>
        <time>2020-07-26T09:32:02Z</time>
      </trkpt>
      <trkpt lat="45.1245" lon="4.01526">
        <ele>744.68</ele>
        <time>2020-07-26T09:32:03Z</time>
      </trkpt>
      <trkpt lat="45.12449" lon="4.01524">
        <ele>744.68</ele>
        <time>2020-07-26T09:32:04Z</time>
      </trkpt>
      <trkpt lat="45.12449" lon="4.01522">
        <ele>745.16</ele>
        <time>2020-07-26T09:32:05Z</time>
      </trkpt>
      <trkpt lat="45.12448" lon="4.0152">
        <ele>744.68</ele>
        <time>2020-07-26T09:32:06Z</time>
      </trkpt>
      <trkpt lat="45.12445" lon="4.01514">
        <ele>744.68</ele>
        <time>2020-07-26T09:32:13Z</time>
      </trkpt>
      <trkpt lat="45.12445" lon="4.01512">
        <ele>744.2</ele>
        <time>2020-07-26T09:32:14Z</time>
      </trkpt>
      <trkpt lat="45.1244" lon="4.01497">
        <ele>744.2</ele>
        <time>2020-07-26T09:32:23Z</time>
      </trkpt>
      <trkpt lat="45.12439" lon="4.01495">
        <ele>743.72</ele>
        <time>2020-07-26T09:32:24Z</time>
      </trkpt>
      <trkpt lat="45.12438" lon="4.01493">
        <ele>743.72</ele>
        <time>2020-07-26T09:32:25Z</time>
      </trkpt>
      <trkpt lat="45.12437" lon="4.01491">
        <ele>743.72</ele>
        <time>2020-07-26T09:32:26Z</time>
      </trkpt>
      <trkpt lat="45.12437" lon="4.01489">
        <ele>743.72</ele>
        <time>2020-07-26T09:32:27Z</time>
      </trkpt>
      <trkpt lat="45.12431" lon="4.01468">
        <ele>743.24</ele>
        <time>2020-07-26T09:32:41Z</time>
      </trkpt>
      <trkpt lat="45.12425" lon="4.01449">
        <ele>743.24</ele>
        <time>2020-07-26T09:32:52Z</time>
      </trkpt>
      <trkpt lat="45.12419" lon="4.01429">
        <ele>742.76</ele>
        <time>2020-07-26T09:33:04Z</time>
      </trkpt>
      <trkpt lat="45.12411" lon="4.01409">
        <ele>742.28</ele>
        <time>2020-07-26T09:33:18Z</time>
      </trkpt>
      <trkpt lat="45.12402" lon="4.01391">
        <ele>741.79</ele>
        <time>2020-07-26T09:33:29Z</time>
      </trkpt>
      <trkpt lat="45.12401" lon="4.01388">
        <ele>740.35</ele>
        <time>2020-07-26T09:33:31Z</time>
      </trkpt>
      <trkpt lat="45.124" lon="4.01386">
        <ele>741.31</ele>
        <time>2020-07-26T09:33:32Z</time>
      </trkpt>
      <trkpt lat="45.12399" lon="4.01384">
        <ele>740.35</ele>
        <time>2020-07-26T09:33:33Z</time>
      </trkpt>
      <trkpt lat="45.12399" lon="4.01381">
        <ele>740.83</ele>
        <time>2020-07-26T09:33:34Z</time>
      </trkpt>
      <trkpt lat="45.12398" lon="4.0138">
        <ele>740.83</ele>
        <time>2020-07-26T09:33:35Z</time>
      </trkpt>
      <trkpt lat="45.12396" lon="4.01367">
        <ele>740.83</ele>
        <time>2020-07-26T09:33:47Z</time>
      </trkpt>
      <trkpt lat="45.12396" lon="4.01365">
        <ele>740.83</ele>
        <time>2020-07-26T09:33:48Z</time>
      </trkpt>
      <trkpt lat="45.12396" lon="4.01364">
        <ele>740.35</ele>
        <time>2020-07-26T09:33:49Z</time>
      </trkpt>
      <trkpt lat="45.12391" lon="4.01342">
        <ele>739.87</ele>
        <time>2020-07-26T09:34:00Z</time>
      </trkpt>
      <trkpt lat="45.12389" lon="4.01326">
        <ele>739.39</ele>
        <time>2020-07-26T09:34:10Z</time>
      </trkpt>
      <trkpt lat="45.12389" lon="4.01306">
        <ele>739.39</ele>
        <time>2020-07-26T09:34:23Z</time>
      </trkpt>
      <trkpt lat="45.1239" lon="4.01285">
        <ele>738.91</ele>
        <time>2020-07-26T09:34:35Z</time>
      </trkpt>
      <trkpt lat="45.12393" lon="4.01269">
        <ele>738.43</ele>
        <time>2020-07-26T09:34:44Z</time>
      </trkpt>
      <trkpt lat="45.12393" lon="4.01265">
        <ele>738.91</ele>
        <time>2020-07-26T09:34:47Z</time>
      </trkpt>
      <trkpt lat="45.12394" lon="4.01263">
        <ele>738.43</ele>
        <time>2020-07-26T09:34:48Z</time>
      </trkpt>
      <trkpt lat="45.12394" lon="4.01261">
        <ele>738.43</ele>
        <time>2020-07-26T09:34:49Z</time>
      </trkpt>
      <trkpt lat="45.12394" lon="4.01259">
        <ele>738.43</ele>
        <time>2020-07-26T09:34:50Z</time>
      </trkpt>
      <trkpt lat="45.12395" lon="4.01257">
        <ele>737.47</ele>
        <time>2020-07-26T09:34:51Z</time>
      </trkpt>
      <trkpt lat="45.12395" lon="4.01255">
        <ele>737.47</ele>
        <time>2020-07-26T09:34:52Z</time>
      </trkpt>
      <trkpt lat="45.12404" lon="4.01234">
        <ele>737.95</ele>
        <time>2020-07-26T09:35:07Z</time>
      </trkpt>
      <trkpt lat="45.1242" lon="4.01207">
        <ele>736.03</ele>
        <time>2020-07-26T09:35:26Z</time>
      </trkpt>
      <trkpt lat="45.1243" lon="4.01195">
        <ele>736.03</ele>
        <time>2020-07-26T09:35:38Z</time>
      </trkpt>
      <trkpt lat="45.1244" lon="4.01187">
        <ele>735.55</ele>
        <time>2020-07-26T09:35:49Z</time>
      </trkpt>
      <trkpt lat="45.12452" lon="4.01175">
        <ele>735.55</ele>
        <time>2020-07-26T09:35:59Z</time>
      </trkpt>
      <trkpt lat="45.12466" lon="4.01163">
        <ele>735.07</ele>
        <time>2020-07-26T09:36:12Z</time>
      </trkpt>
      <trkpt lat="45.12468" lon="4.0116">
        <ele>734.58</ele>
        <time>2020-07-26T09:36:15Z</time>
      </trkpt>
      <trkpt lat="45.12469" lon="4.01159">
        <ele>734.1</ele>
        <time>2020-07-26T09:36:16Z</time>
      </trkpt>
      <trkpt lat="45.12471" lon="4.01158">
        <ele>734.1</ele>
        <time>2020-07-26T09:36:17Z</time>
      </trkpt>
      <trkpt lat="45.12486" lon="4.01147">
        <ele>734.1</ele>
        <time>2020-07-26T09:36:30Z</time>
      </trkpt>
      <trkpt lat="45.12504" lon="4.01136">
        <ele>733.62</ele>
        <time>2020-07-26T09:36:45Z</time>
      </trkpt>
      <trkpt lat="45.12506" lon="4.01134">
        <ele>733.62</ele>
        <time>2020-07-26T09:36:47Z</time>
      </trkpt>
      <trkpt lat="45.12507" lon="4.01133">
        <ele>733.62</ele>
        <time>2020-07-26T09:36:48Z</time>
      </trkpt>
      <trkpt lat="45.12508" lon="4.01131">
        <ele>733.14</ele>
        <time>2020-07-26T09:36:49Z</time>
      </trkpt>
      <trkpt lat="45.12509" lon="4.0113">
        <ele>733.14</ele>
        <time>2020-07-26T09:36:50Z</time>
      </trkpt>
      <trkpt lat="45.12509" lon="4.01128">
        <ele>733.62</ele>
        <time>2020-07-26T09:36:51Z</time>
      </trkpt>
      <trkpt lat="45.1251" lon="4.01127">
        <ele>733.62</ele>
        <time>2020-07-26T09:36:52Z</time>
      </trkpt>
      <trkpt lat="45.12511" lon="4.01127">
        <ele>733.14</ele>
        <time>2020-07-26T09:36:53Z</time>
      </trkpt>
      <trkpt lat="45.12512" lon="4.01125">
        <ele>733.14</ele>
        <time>2020-07-26T09:36:56Z</time>
      </trkpt>
      <trkpt lat="45.12514" lon="4.01123">
        <ele>733.62</ele>
        <time>2020-07-26T09:36:58Z</time>
      </trkpt>
      <trkpt lat="45.12527" lon="4.01105">
        <ele>733.14</ele>
        <time>2020-07-26T09:37:12Z</time>
      </trkpt>
      <trkpt lat="45.12541" lon="4.01084">
        <ele>731.7</ele>
        <time>2020-07-26T09:37:29Z</time>
      </trkpt>
      <trkpt lat="45.12542" lon="4.0108">
        <ele>731.7</ele>
        <time>2020-07-26T09:37:32Z</time>
      </trkpt>
      <trkpt lat="45.12542" lon="4.01079">
        <ele>731.7</ele>
        <time>2020-07-26T09:37:33Z</time>
      </trkpt>
      <trkpt lat="45.12543" lon="4.01077">
        <ele>731.7</ele>
        <time>2020-07-26T09:37:34Z</time>
      </trkpt>
      <trkpt lat="45.12544" lon="4.01072">
        <ele>731.7</ele>
        <time>2020-07-26T09:37:37Z</time>
      </trkpt>
      <trkpt lat="45.12546" lon="4.01068">
        <ele>731.22</ele>
        <time>2020-07-26T09:37:42Z</time>
      </trkpt>
      <trkpt lat="45.12546" lon="4.01066">
        <ele>731.22</ele>
        <time>2020-07-26T09:37:43Z</time>
      </trkpt>
      <trkpt lat="45.12547" lon="4.01063">
        <ele>731.22</ele>
        <time>2020-07-26T09:37:44Z</time>
      </trkpt>
      <trkpt lat="45.12548" lon="4.01061">
        <ele>731.22</ele>
        <time>2020-07-26T09:37:45Z</time>
      </trkpt>
      <trkpt lat="45.12556" lon="4.01029">
        <ele>730.74</ele>
        <time>2020-07-26T09:38:02Z</time>
      </trkpt>
      <trkpt lat="45.12556" lon="4.01022">
        <ele>730.74</ele>
        <time>2020-07-26T09:38:06Z</time>
      </trkpt>
      <trkpt lat="45.12556" lon="4.0102">
        <ele>730.74</ele>
        <time>2020-07-26T09:38:07Z</time>
      </trkpt>
      <trkpt lat="45.12556" lon="4.01017">
        <ele>730.74</ele>
        <time>2020-07-26T09:38:08Z</time>
      </trkpt>
      <trkpt lat="45.12556" lon="4.01014">
        <ele>730.74</ele>
        <time>2020-07-26T09:38:09Z</time>
      </trkpt>
      <trkpt lat="45.12557" lon="4.01012">
        <ele>730.74</ele>
        <time>2020-07-26T09:38:10Z</time>
      </trkpt>
      <trkpt lat="45.12557" lon="4.01009">
        <ele>730.74</ele>
        <time>2020-07-26T09:38:11Z</time>
      </trkpt>
      <trkpt lat="45.12557" lon="4.01007">
        <ele>730.26</ele>
        <time>2020-07-26T09:38:12Z</time>
      </trkpt>
      <trkpt lat="45.12557" lon="4.0099">
        <ele>730.74</ele>
        <time>2020-07-26T09:38:22Z</time>
      </trkpt>
      <trkpt lat="45.12556" lon="4.00962">
        <ele>729.78</ele>
        <time>2020-07-26T09:38:38Z</time>
      </trkpt>
      <trkpt lat="45.12558" lon="4.00936">
        <ele>728.82</ele>
        <time>2020-07-26T09:38:52Z</time>
      </trkpt>
      <trkpt lat="45.12557" lon="4.00931">
        <ele>729.3</ele>
        <time>2020-07-26T09:38:56Z</time>
      </trkpt>
      <trkpt lat="45.12558" lon="4.00928">
        <ele>728.82</ele>
        <time>2020-07-26T09:38:57Z</time>
      </trkpt>
      <trkpt lat="45.12558" lon="4.00916">
        <ele>728.82</ele>
        <time>2020-07-26T09:39:05Z</time>
      </trkpt>
      <trkpt lat="45.12558" lon="4.00908">
        <ele>728.34</ele>
        <time>2020-07-26T09:39:13Z</time>
      </trkpt>
      <trkpt lat="45.12558" lon="4.00891">
        <ele>728.34</ele>
        <time>2020-07-26T09:39:26Z</time>
      </trkpt>
      <trkpt lat="45.12557" lon="4.0088">
        <ele>728.34</ele>
        <time>2020-07-26T09:39:42Z</time>
      </trkpt>
      <trkpt lat="45.12555" lon="4.00861">
        <ele>727.86</ele>
        <time>2020-07-26T09:39:55Z</time>
      </trkpt>
      <trkpt lat="45.12555" lon="4.00854">
        <ele>727.37</ele>
        <time>2020-07-26T09:40:00Z</time>
      </trkpt>
      <trkpt lat="45.12555" lon="4.00853">
        <ele>727.37</ele>
        <time>2020-07-26T09:40:01Z</time>
      </trkpt>
      <trkpt lat="45.12551" lon="4.00835">
        <ele>727.37</ele>
        <time>2020-07-26T09:40:12Z</time>
      </trkpt>
      <trkpt lat="45.12545" lon="4.00818">
        <ele>726.41</ele>
        <time>2020-07-26T09:40:25Z</time>
      </trkpt>
      <trkpt lat="45.1254" lon="4.00812">
        <ele>726.41</ele>
        <time>2020-07-26T09:40:29Z</time>
      </trkpt>
      <trkpt lat="45.12532" lon="4.00803">
        <ele>725.93</ele>
        <time>2020-07-26T09:40:47Z</time>
      </trkpt>
      <trkpt lat="45.12532" lon="4.00801">
        <ele>726.41</ele>
        <time>2020-07-26T09:41:19Z</time>
      </trkpt>
      <trkpt lat="45.12532" lon="4.00799">
        <ele>725.93</ele>
        <time>2020-07-26T09:41:20Z</time>
      </trkpt>
      <trkpt lat="45.12524" lon="4.00758">
        <ele>725.45</ele>
        <time>2020-07-26T09:41:31Z</time>
      </trkpt>
      <trkpt lat="45.1252" lon="4.00726">
        <ele>724.97</ele>
        <time>2020-07-26T09:41:39Z</time>
      </trkpt>
      <trkpt lat="45.12529" lon="4.00694">
        <ele>723.53</ele>
        <time>2020-07-26T09:41:48Z</time>
      </trkpt>
      <trkpt lat="45.12534" lon="4.00675">
        <ele>723.05</ele>
        <time>2020-07-26T09:41:55Z</time>
      </trkpt>
      <trkpt lat="45.12535" lon="4.00655">
        <ele>723.05</ele>
        <time>2020-07-26T09:42:07Z</time>
      </trkpt>
      <trkpt lat="45.12538" lon="4.0063">
        <ele>722.09</ele>
        <time>2020-07-26T09:42:19Z</time>
      </trkpt>
      <trkpt lat="45.12543" lon="4.00607">
        <ele>721.61</ele>
        <time>2020-07-26T09:42:33Z</time>
      </trkpt>
      <trkpt lat="45.12547" lon="4.00574">
        <ele>720.65</ele>
        <time>2020-07-26T09:42:48Z</time>
      </trkpt>
      <trkpt lat="45.12546" lon="4.00562">
        <ele>720.65</ele>
        <time>2020-07-26T09:42:56Z</time>
      </trkpt>
      <trkpt lat="45.12547" lon="4.0056">
        <ele>720.65</ele>
        <time>2020-07-26T09:42:57Z</time>
      </trkpt>
      <trkpt lat="45.12544" lon="4.00539">
        <ele>720.65</ele>
        <time>2020-07-26T09:43:10Z</time>
      </trkpt>
      <trkpt lat="45.12544" lon="4.00536">
        <ele>720.16</ele>
        <time>2020-07-26T09:43:13Z</time>
      </trkpt>
      <trkpt lat="45.12544" lon="4.00534">
        <ele>720.16</ele>
        <time>2020-07-26T09:43:14Z</time>
      </trkpt>
      <trkpt lat="45.12543" lon="4.00529">
        <ele>720.65</ele>
        <time>2020-07-26T09:43:16Z</time>
      </trkpt>
      <trkpt lat="45.12543" lon="4.00524">
        <ele>719.68</ele>
        <time>2020-07-26T09:43:18Z</time>
      </trkpt>
      <trkpt lat="45.12544" lon="4.00516">
        <ele>719.68</ele>
        <time>2020-07-26T09:43:24Z</time>
      </trkpt>
      <trkpt lat="45.1254" lon="4.005">
        <ele>719.68</ele>
        <time>2020-07-26T09:43:35Z</time>
      </trkpt>
      <trkpt lat="45.12539" lon="4.00498">
        <ele>719.68</ele>
        <time>2020-07-26T09:43:36Z</time>
      </trkpt>
      <trkpt lat="45.12539" lon="4.00496">
        <ele>719.2</ele>
        <time>2020-07-26T09:43:37Z</time>
      </trkpt>
      <trkpt lat="45.12538" lon="4.00493">
        <ele>719.2</ele>
        <time>2020-07-26T09:43:38Z</time>
      </trkpt>
      <trkpt lat="45.12538" lon="4.00491">
        <ele>719.2</ele>
        <time>2020-07-26T09:43:39Z</time>
      </trkpt>
      <trkpt lat="45.12536" lon="4.00482">
        <ele>719.2</ele>
        <time>2020-07-26T09:43:46Z</time>
      </trkpt>
      <trkpt lat="45.12536" lon="4.0048">
        <ele>719.2</ele>
        <time>2020-07-26T09:43:47Z</time>
      </trkpt>
      <trkpt lat="45.12535" lon="4.00478">
        <ele>718.72</ele>
        <time>2020-07-26T09:43:48Z</time>
      </trkpt>
      <trkpt lat="45.12535" lon="4.00476">
        <ele>718.72</ele>
        <time>2020-07-26T09:43:49Z</time>
      </trkpt>
      <trkpt lat="45.12535" lon="4.00474">
        <ele>718.72</ele>
        <time>2020-07-26T09:43:50Z</time>
      </trkpt>
      <trkpt lat="45.12534" lon="4.00472">
        <ele>718.72</ele>
        <time>2020-07-26T09:43:51Z</time>
      </trkpt>
      <trkpt lat="45.1253" lon="4.00455">
        <ele>718.24</ele>
        <time>2020-07-26T09:44:01Z</time>
      </trkpt>
      <trkpt lat="45.12527" lon="4.00444">
        <ele>718.24</ele>
        <time>2020-07-26T09:44:08Z</time>
      </trkpt>
      <trkpt lat="45.12526" lon="4.00443">
        <ele>718.24</ele>
        <time>2020-07-26T09:44:09Z</time>
      </trkpt>
      <trkpt lat="45.12526" lon="4.0044">
        <ele>718.72</ele>
        <time>2020-07-26T09:44:10Z</time>
      </trkpt>
      <trkpt lat="45.12519" lon="4.00414">
        <ele>717.28</ele>
        <time>2020-07-26T09:44:24Z</time>
      </trkpt>
      <trkpt lat="45.12516" lon="4.00401">
        <ele>717.28</ele>
        <time>2020-07-26T09:44:32Z</time>
      </trkpt>
      <trkpt lat="45.12515" lon="4.00399">
        <ele>718.24</ele>
        <time>2020-07-26T09:44:33Z</time>
      </trkpt>
      <trkpt lat="45.12515" lon="4.00396">
        <ele>717.28</ele>
        <time>2020-07-26T09:44:34Z</time>
      </trkpt>
      <trkpt lat="45.12514" lon="4.00366">
        <ele>717.28</ele>
        <time>2020-07-26T09:44:49Z</time>
      </trkpt>
      <trkpt lat="45.12519" lon="4.00336">
        <ele>716.32</ele>
        <time>2020-07-26T09:45:03Z</time>
      </trkpt>
      <trkpt lat="45.12521" lon="4.00317">
        <ele>715.84</ele>
        <time>2020-07-26T09:45:16Z</time>
      </trkpt>
      <trkpt lat="45.12526" lon="4.00305">
        <ele>715.36</ele>
        <time>2020-07-26T09:45:24Z</time>
      </trkpt>
      <trkpt lat="45.12526" lon="4.00303">
        <ele>715.36</ele>
        <time>2020-07-26T09:45:25Z</time>
      </trkpt>
      <trkpt lat="45.12527" lon="4.003">
        <ele>715.36</ele>
        <time>2020-07-26T09:45:26Z</time>
      </trkpt>
      <trkpt lat="45.12527" lon="4.00299">
        <ele>715.36</ele>
        <time>2020-07-26T09:45:27Z</time>
      </trkpt>
      <trkpt lat="45.12531" lon="4.00289">
        <ele>715.84</ele>
        <time>2020-07-26T09:45:34Z</time>
      </trkpt>
      <trkpt lat="45.12546" lon="4.00263">
        <ele>714.88</ele>
        <time>2020-07-26T09:45:52Z</time>
      </trkpt>
      <trkpt lat="45.12558" lon="4.00238">
        <ele>713.92</ele>
        <time>2020-07-26T09:46:09Z</time>
      </trkpt>
      <trkpt lat="45.12565" lon="4.00217">
        <ele>713.92</ele>
        <time>2020-07-26T09:46:22Z</time>
      </trkpt>
      <trkpt lat="45.12566" lon="4.00216">
        <ele>713.92</ele>
        <time>2020-07-26T09:46:23Z</time>
      </trkpt>
      <trkpt lat="45.12568" lon="4.00213">
        <ele>713.44</ele>
        <time>2020-07-26T09:46:24Z</time>
      </trkpt>
      <trkpt lat="45.12579" lon="4.00185">
        <ele>712.95</ele>
        <time>2020-07-26T09:46:39Z</time>
      </trkpt>
      <trkpt lat="45.12584" lon="4.00162">
        <ele>712.47</ele>
        <time>2020-07-26T09:46:54Z</time>
      </trkpt>
      <trkpt lat="45.12588" lon="4.00136">
        <ele>711.99</ele>
        <time>2020-07-26T09:47:08Z</time>
      </trkpt>
      <trkpt lat="45.12592" lon="4.00113">
        <ele>711.51</ele>
        <time>2020-07-26T09:47:21Z</time>
      </trkpt>
      <trkpt lat="45.12599" lon="4.00087">
        <ele>711.51</ele>
        <time>2020-07-26T09:47:35Z</time>
      </trkpt>
      <trkpt lat="45.12607" lon="4.00065">
        <ele>711.03</ele>
        <time>2020-07-26T09:47:49Z</time>
      </trkpt>
      <trkpt lat="45.12613" lon="4.00048">
        <ele>710.07</ele>
        <time>2020-07-26T09:47:58Z</time>
      </trkpt>
      <trkpt lat="45.12628" lon="4.00029">
        <ele>709.59</ele>
        <time>2020-07-26T09:48:15Z</time>
      </trkpt>
      <trkpt lat="45.12645" lon="4.00005">
        <ele>708.63</ele>
        <time>2020-07-26T09:48:33Z</time>
      </trkpt>
      <trkpt lat="45.12656" lon="3.99988">
        <ele>708.15</ele>
        <time>2020-07-26T09:48:46Z</time>
      </trkpt>
      <trkpt lat="45.12672" lon="3.99965">
        <ele>707.67</ele>
        <time>2020-07-26T09:49:04Z</time>
      </trkpt>
      <trkpt lat="45.12683" lon="3.99951">
        <ele>706.71</ele>
        <time>2020-07-26T09:49:17Z</time>
      </trkpt>
      <trkpt lat="45.12694" lon="3.99936">
        <ele>706.23</ele>
        <time>2020-07-26T09:49:29Z</time>
      </trkpt>
      <trkpt lat="45.12707" lon="3.99922">
        <ele>706.23</ele>
        <time>2020-07-26T09:49:42Z</time>
      </trkpt>
      <trkpt lat="45.12708" lon="3.99922">
        <ele>705.26</ele>
        <time>2020-07-26T09:49:43Z</time>
      </trkpt>
      <trkpt lat="45.12709" lon="3.99921">
        <ele>705.26</ele>
        <time>2020-07-26T09:49:44Z</time>
      </trkpt>
      <trkpt lat="45.12728" lon="3.99905">
        <ele>705.26</ele>
        <time>2020-07-26T09:50:01Z</time>
      </trkpt>
      <trkpt lat="45.12747" lon="3.99893">
        <ele>704.3</ele>
        <time>2020-07-26T09:50:17Z</time>
      </trkpt>
      <trkpt lat="45.12758" lon="3.99882">
        <ele>703.34</ele>
        <time>2020-07-26T09:50:29Z</time>
      </trkpt>
      <trkpt lat="45.12761" lon="3.99882">
        <ele>703.34</ele>
        <time>2020-07-26T09:50:32Z</time>
      </trkpt>
      <trkpt lat="45.12762" lon="3.99881">
        <ele>703.34</ele>
        <time>2020-07-26T09:50:33Z</time>
      </trkpt>
      <trkpt lat="45.12768" lon="3.99874">
        <ele>702.38</ele>
        <time>2020-07-26T09:50:41Z</time>
      </trkpt>
      <trkpt lat="45.12769" lon="3.99873">
        <ele>702.38</ele>
        <time>2020-07-26T09:50:42Z</time>
      </trkpt>
      <trkpt lat="45.12772" lon="3.99869">
        <ele>702.38</ele>
        <time>2020-07-26T09:50:54Z</time>
      </trkpt>
      <trkpt lat="45.12778" lon="3.99864">
        <ele>701.42</ele>
        <time>2020-07-26T09:51:02Z</time>
      </trkpt>
      <trkpt lat="45.12788" lon="3.99854">
        <ele>699.98</ele>
        <time>2020-07-26T09:51:11Z</time>
      </trkpt>
      <trkpt lat="45.12789" lon="3.99851">
        <ele>699.5</ele>
        <time>2020-07-26T09:51:14Z</time>
      </trkpt>
      <trkpt lat="45.1279" lon="3.99849">
        <ele>699.02</ele>
        <time>2020-07-26T09:51:15Z</time>
      </trkpt>
      <trkpt lat="45.12791" lon="3.99848">
        <ele>699.5</ele>
        <time>2020-07-26T09:51:16Z</time>
      </trkpt>
      <trkpt lat="45.12792" lon="3.99848">
        <ele>699.02</ele>
        <time>2020-07-26T09:51:17Z</time>
      </trkpt>
      <trkpt lat="45.12793" lon="3.99846">
        <ele>698.53</ele>
        <time>2020-07-26T09:51:27Z</time>
      </trkpt>
      <trkpt lat="45.12794" lon="3.99845">
        <ele>699.02</ele>
        <time>2020-07-26T09:51:28Z</time>
      </trkpt>
      <trkpt lat="45.12795" lon="3.99843">
        <ele>698.53</ele>
        <time>2020-07-26T09:51:29Z</time>
      </trkpt>
      <trkpt lat="45.12795" lon="3.99841">
        <ele>699.02</ele>
        <time>2020-07-26T09:51:30Z</time>
      </trkpt>
      <trkpt lat="45.12801" lon="3.99834">
        <ele>698.05</ele>
        <time>2020-07-26T09:51:39Z</time>
      </trkpt>
      <trkpt lat="45.12804" lon="3.99828">
        <ele>696.61</ele>
        <time>2020-07-26T09:51:45Z</time>
      </trkpt>
      <trkpt lat="45.12804" lon="3.99826">
        <ele>695.65</ele>
        <time>2020-07-26T09:51:50Z</time>
      </trkpt>
      <trkpt lat="45.12806" lon="3.99825">
        <ele>696.13</ele>
        <time>2020-07-26T09:51:51Z</time>
      </trkpt>
      <trkpt lat="45.12807" lon="3.99824">
        <ele>696.13</ele>
        <time>2020-07-26T09:51:52Z</time>
      </trkpt>
      <trkpt lat="45.12809" lon="3.99823">
        <ele>695.65</ele>
        <time>2020-07-26T09:51:53Z</time>
      </trkpt>
      <trkpt lat="45.12811" lon="3.99823">
        <ele>695.17</ele>
        <time>2020-07-26T09:51:54Z</time>
      </trkpt>
      <trkpt lat="45.12812" lon="3.99824">
        <ele>695.17</ele>
        <time>2020-07-26T09:51:55Z</time>
      </trkpt>
      <trkpt lat="45.1282" lon="3.99832">
        <ele>697.57</ele>
        <time>2020-07-26T09:52:11Z</time>
      </trkpt>
      <trkpt lat="45.12825" lon="3.99839">
        <ele>697.57</ele>
        <time>2020-07-26T09:52:20Z</time>
      </trkpt>
      <trkpt lat="45.12832" lon="3.99848">
        <ele>699.5</ele>
        <time>2020-07-26T09:52:33Z</time>
      </trkpt>
      <trkpt lat="45.12835" lon="3.99853">
        <ele>699.02</ele>
        <time>2020-07-26T09:52:37Z</time>
      </trkpt>
      <trkpt lat="45.12842" lon="3.99862">
        <ele>700.46</ele>
        <time>2020-07-26T09:52:50Z</time>
      </trkpt>
      <trkpt lat="45.12848" lon="3.99872">
        <ele>701.9</ele>
        <time>2020-07-26T09:53:03Z</time>
      </trkpt>
      <trkpt lat="45.12851" lon="3.99877">
        <ele>702.86</ele>
        <time>2020-07-26T09:53:07Z</time>
      </trkpt>
      <trkpt lat="45.12856" lon="3.99887">
        <ele>704.3</ele>
        <time>2020-07-26T09:53:20Z</time>
      </trkpt>
      <trkpt lat="45.12854" lon="3.99897">
        <ele>706.71</ele>
        <time>2020-07-26T09:53:31Z</time>
      </trkpt>
      <trkpt lat="45.12847" lon="3.9991">
        <ele>708.15</ele>
        <time>2020-07-26T09:53:43Z</time>
      </trkpt>
      <trkpt lat="45.12846" lon="3.9991">
        <ele>708.63</ele>
        <time>2020-07-26T09:53:45Z</time>
      </trkpt>
      <trkpt lat="45.12844" lon="3.99913">
        <ele>708.63</ele>
        <time>2020-07-26T09:53:48Z</time>
      </trkpt>
      <trkpt lat="45.12843" lon="3.99915">
        <ele>708.63</ele>
        <time>2020-07-26T09:53:49Z</time>
      </trkpt>
      <trkpt lat="45.1284" lon="3.9992">
        <ele>708.63</ele>
        <time>2020-07-26T09:53:53Z</time>
      </trkpt>
      <trkpt lat="45.12838" lon="3.99922">
        <ele>709.59</ele>
        <time>2020-07-26T09:53:56Z</time>
      </trkpt>
      <trkpt lat="45.12835" lon="3.99926">
        <ele>710.55</ele>
        <time>2020-07-26T09:54:02Z</time>
      </trkpt>
      <trkpt lat="45.12834" lon="3.99933">
        <ele>711.51</ele>
        <time>2020-07-26T09:54:08Z</time>
      </trkpt>
      <trkpt lat="45.12836" lon="3.99936">
        <ele>712.47</ele>
        <time>2020-07-26T09:54:11Z</time>
      </trkpt>
      <trkpt lat="45.12843" lon="3.99944">
        <ele>713.92</ele>
        <time>2020-07-26T09:54:22Z</time>
      </trkpt>
      <trkpt lat="45.12843" lon="3.99945">
        <ele>713.92</ele>
        <time>2020-07-26T09:54:23Z</time>
      </trkpt>
      <trkpt lat="45.12848" lon="3.9995">
        <ele>714.88</ele>
        <time>2020-07-26T09:54:30Z</time>
      </trkpt>
      <trkpt lat="45.12857" lon="3.99958">
        <ele>716.8</ele>
        <time>2020-07-26T09:54:43Z</time>
      </trkpt>
      <trkpt lat="45.12864" lon="3.99967">
        <ele>718.72</ele>
        <time>2020-07-26T09:54:56Z</time>
      </trkpt>
      <trkpt lat="45.12867" lon="3.99973">
        <ele>719.2</ele>
        <time>2020-07-26T09:55:08Z</time>
      </trkpt>
      <trkpt lat="45.12872" lon="3.99973">
        <ele>718.24</ele>
        <time>2020-07-26T09:55:22Z</time>
      </trkpt>
      <trkpt lat="45.12873" lon="3.99976">
        <ele>718.72</ele>
        <time>2020-07-26T09:55:49Z</time>
      </trkpt>
      <trkpt lat="45.12874" lon="3.99973">
        <ele>718.24</ele>
        <time>2020-07-26T09:56:19Z</time>
      </trkpt>
      <trkpt lat="45.12872" lon="3.99972">
        <ele>718.72</ele>
        <time>2020-07-26T09:56:39Z</time>
      </trkpt>
      <trkpt lat="45.12871" lon="3.99971">
        <ele>718.24</ele>
        <time>2020-07-26T09:57:01Z</time>
      </trkpt>
      <trkpt lat="45.12869" lon="3.9998">
        <ele>720.65</ele>
        <time>2020-07-26T09:57:12Z</time>
      </trkpt>
      <trkpt lat="45.1287" lon="3.99989">
        <ele>721.13</ele>
        <time>2020-07-26T09:57:19Z</time>
      </trkpt>
      <trkpt lat="45.12871" lon="3.99991">
        <ele>721.61</ele>
        <time>2020-07-26T09:57:20Z</time>
      </trkpt>
      <trkpt lat="45.12873" lon="4">
        <ele>722.57</ele>
        <time>2020-07-26T09:57:31Z</time>
      </trkpt>
      <trkpt lat="45.12875" lon="4.00004">
        <ele>723.05</ele>
        <time>2020-07-26T09:58:01Z</time>
      </trkpt>
      <trkpt lat="45.12876" lon="4.00005">
        <ele>722.57</ele>
        <time>2020-07-26T09:58:20Z</time>
      </trkpt>
      <trkpt lat="45.12876" lon="4.0001">
        <ele>723.53</ele>
        <time>2020-07-26T09:58:34Z</time>
      </trkpt>
      <trkpt lat="45.12878" lon="4.00014">
        <ele>724.01</ele>
        <time>2020-07-26T09:58:38Z</time>
      </trkpt>
      <trkpt lat="45.12879" lon="4.00016">
        <ele>723.05</ele>
        <time>2020-07-26T09:58:39Z</time>
      </trkpt>
      <trkpt lat="45.12881" lon="4.00021">
        <ele>723.05</ele>
        <time>2020-07-26T09:58:44Z</time>
      </trkpt>
      <trkpt lat="45.12887" lon="4.00023">
        <ele>723.05</ele>
        <time>2020-07-26T09:58:52Z</time>
      </trkpt>
      <trkpt lat="45.12897" lon="4.0003">
        <ele>724.97</ele>
        <time>2020-07-26T09:59:06Z</time>
      </trkpt>
      <trkpt lat="45.129" lon="4.00027">
        <ele>724.01</ele>
        <time>2020-07-26T09:59:22Z</time>
      </trkpt>
      <trkpt lat="45.129" lon="4.00028">
        <ele>724.01</ele>
        <time>2020-07-26T09:59:55Z</time>
      </trkpt>
      <trkpt lat="45.12902" lon="4.00025">
        <ele>723.53</ele>
        <time>2020-07-26T10:00:15Z</time>
      </trkpt>
      <trkpt lat="45.1289" lon="4.00024">
        <ele>723.05</ele>
        <time>2020-07-26T10:00:29Z</time>
      </trkpt>
      <trkpt lat="45.12889" lon="4.00023">
        <ele>723.05</ele>
        <time>2020-07-26T10:00:30Z</time>
      </trkpt>
      <trkpt lat="45.12878" lon="4.00016">
        <ele>722.57</ele>
        <time>2020-07-26T10:00:42Z</time>
      </trkpt>
      <trkpt lat="45.12876" lon="4.00008">
        <ele>724.01</ele>
        <time>2020-07-26T10:00:53Z</time>
      </trkpt>
      <trkpt lat="45.12873" lon="4">
        <ele>723.05</ele>
        <time>2020-07-26T10:01:08Z</time>
      </trkpt>
      <trkpt lat="45.12873" lon="3.99999">
        <ele>723.05</ele>
        <time>2020-07-26T10:01:09Z</time>
      </trkpt>
      <trkpt lat="45.12873" lon="3.99997">
        <ele>722.57</ele>
        <time>2020-07-26T10:01:10Z</time>
      </trkpt>
      <trkpt lat="45.12873" lon="3.99995">
        <ele>722.09</ele>
        <time>2020-07-26T10:01:11Z</time>
      </trkpt>
      <trkpt lat="45.12872" lon="3.99992">
        <ele>722.57</ele>
        <time>2020-07-26T10:01:12Z</time>
      </trkpt>
      <trkpt lat="45.12867" lon="3.99961">
        <ele>719.2</ele>
        <time>2020-07-26T10:01:23Z</time>
      </trkpt>
      <trkpt lat="45.12867" lon="3.9996">
        <ele>719.2</ele>
        <time>2020-07-26T10:01:26Z</time>
      </trkpt>
      <trkpt lat="45.12863" lon="3.99961">
        <ele>717.28</ele>
        <time>2020-07-26T10:01:37Z</time>
      </trkpt>
      <trkpt lat="45.12851" lon="3.99947">
        <ele>715.84</ele>
        <time>2020-07-26T10:01:46Z</time>
      </trkpt>
      <trkpt lat="45.12841" lon="3.99941">
        <ele>712.47</ele>
        <time>2020-07-26T10:02:00Z</time>
      </trkpt>
      <trkpt lat="45.12841" lon="3.99924">
        <ele>709.59</ele>
        <time>2020-07-26T10:02:12Z</time>
      </trkpt>
      <trkpt lat="45.12852" lon="3.99905">
        <ele>706.71</ele>
        <time>2020-07-26T10:02:30Z</time>
      </trkpt>
      <trkpt lat="45.12857" lon="3.99887">
        <ele>703.34</ele>
        <time>2020-07-26T10:02:48Z</time>
      </trkpt>
      <trkpt lat="45.1285" lon="3.99876">
        <ele>702.38</ele>
        <time>2020-07-26T10:03:05Z</time>
      </trkpt>
      <trkpt lat="45.12844" lon="3.99864">
        <ele>700.46</ele>
        <time>2020-07-26T10:03:20Z</time>
      </trkpt>
      <trkpt lat="45.12833" lon="3.99846">
        <ele>698.53</ele>
        <time>2020-07-26T10:03:37Z</time>
      </trkpt>
      <trkpt lat="45.12823" lon="3.99833">
        <ele>696.13</ele>
        <time>2020-07-26T10:03:55Z</time>
      </trkpt>
      <trkpt lat="45.12816" lon="3.99826">
        <ele>694.69</ele>
        <time>2020-07-26T10:04:02Z</time>
      </trkpt>
      <trkpt lat="45.12806" lon="3.99823">
        <ele>693.73</ele>
        <time>2020-07-26T10:04:15Z</time>
      </trkpt>
      <trkpt lat="45.12797" lon="3.99836">
        <ele>695.65</ele>
        <time>2020-07-26T10:04:30Z</time>
      </trkpt>
      <trkpt lat="45.12789" lon="3.99841">
        <ele>698.53</ele>
        <time>2020-07-26T10:04:44Z</time>
      </trkpt>
      <trkpt lat="45.12791" lon="3.99838">
        <ele>699.98</ele>
        <time>2020-07-26T10:04:52Z</time>
      </trkpt>
      <trkpt lat="45.1279" lon="3.99836">
        <ele>700.94</ele>
        <time>2020-07-26T10:04:53Z</time>
      </trkpt>
      <trkpt lat="45.12792" lon="3.99832">
        <ele>699.98</ele>
        <time>2020-07-26T10:04:57Z</time>
      </trkpt>
      <trkpt lat="45.12792" lon="3.9983">
        <ele>699.98</ele>
        <time>2020-07-26T10:04:58Z</time>
      </trkpt>
      <trkpt lat="45.12792" lon="3.99827">
        <ele>699.5</ele>
        <time>2020-07-26T10:04:59Z</time>
      </trkpt>
      <trkpt lat="45.12794" lon="3.9982">
        <ele>699.98</ele>
        <time>2020-07-26T10:05:04Z</time>
      </trkpt>
      <trkpt lat="45.12798" lon="3.99811">
        <ele>699.5</ele>
        <time>2020-07-26T10:05:11Z</time>
      </trkpt>
      <trkpt lat="45.12801" lon="3.99791">
        <ele>699.98</ele>
        <time>2020-07-26T10:05:23Z</time>
      </trkpt>
      <trkpt lat="45.12805" lon="3.99766">
        <ele>698.53</ele>
        <time>2020-07-26T10:05:36Z</time>
      </trkpt>
      <trkpt lat="45.12806" lon="3.99759">
        <ele>698.53</ele>
        <time>2020-07-26T10:05:41Z</time>
      </trkpt>
      <trkpt lat="45.12807" lon="3.99736">
        <ele>698.05</ele>
        <time>2020-07-26T10:05:54Z</time>
      </trkpt>
      <trkpt lat="45.12804" lon="3.99718">
        <ele>698.05</ele>
        <time>2020-07-26T10:06:05Z</time>
      </trkpt>
      <trkpt lat="45.12804" lon="3.99718">
        <ele>697.57</ele>
        <time>2020-07-26T10:06:08Z</time>
      </trkpt>
      <trkpt lat="45.12804" lon="3.99716">
        <ele>697.57</ele>
        <time>2020-07-26T10:06:10Z</time>
      </trkpt>
      <trkpt lat="45.12802" lon="3.99692">
        <ele>696.13</ele>
        <time>2020-07-26T10:06:25Z</time>
      </trkpt>
      <trkpt lat="45.12802" lon="3.99676">
        <ele>696.13</ele>
        <time>2020-07-26T10:06:33Z</time>
      </trkpt>
      <trkpt lat="45.12803" lon="3.99671">
        <ele>695.65</ele>
        <time>2020-07-26T10:06:49Z</time>
      </trkpt>
      <trkpt lat="45.12801" lon="3.99671">
        <ele>695.65</ele>
        <time>2020-07-26T10:07:05Z</time>
      </trkpt>
      <trkpt lat="45.12801" lon="3.99668">
        <ele>695.65</ele>
        <time>2020-07-26T10:07:18Z</time>
      </trkpt>
      <trkpt lat="45.128" lon="3.99664">
        <ele>695.65</ele>
        <time>2020-07-26T10:07:30Z</time>
      </trkpt>
      <trkpt lat="45.12798" lon="3.99647">
        <ele>695.17</ele>
        <time>2020-07-26T10:07:39Z</time>
      </trkpt>
      <trkpt lat="45.128" lon="3.99625">
        <ele>694.69</ele>
        <time>2020-07-26T10:07:52Z</time>
      </trkpt>
      <trkpt lat="45.12803" lon="3.99605">
        <ele>694.69</ele>
        <time>2020-07-26T10:08:01Z</time>
      </trkpt>
      <trkpt lat="45.12803" lon="3.99603">
        <ele>694.69</ele>
        <time>2020-07-26T10:08:02Z</time>
      </trkpt>
      <trkpt lat="45.12809" lon="3.99586">
        <ele>694.21</ele>
        <time>2020-07-26T10:08:14Z</time>
      </trkpt>
      <trkpt lat="45.12817" lon="3.99564">
        <ele>693.25</ele>
        <time>2020-07-26T10:08:27Z</time>
      </trkpt>
      <trkpt lat="45.12827" lon="3.99545">
        <ele>693.25</ele>
        <time>2020-07-26T10:08:40Z</time>
      </trkpt>
      <trkpt lat="45.12837" lon="3.99524">
        <ele>691.81</ele>
        <time>2020-07-26T10:08:53Z</time>
      </trkpt>
      <trkpt lat="45.12843" lon="3.99505">
        <ele>691.81</ele>
        <time>2020-07-26T10:09:03Z</time>
      </trkpt>
      <trkpt lat="45.12859" lon="3.99474">
        <ele>690.84</ele>
        <time>2020-07-26T10:09:22Z</time>
      </trkpt>
      <trkpt lat="45.12864" lon="3.99461">
        <ele>689.88</ele>
        <time>2020-07-26T10:09:30Z</time>
      </trkpt>
      <trkpt lat="45.12865" lon="3.99459">
        <ele>689.88</ele>
        <time>2020-07-26T10:09:31Z</time>
      </trkpt>
      <trkpt lat="45.12866" lon="3.99457">
        <ele>690.36</ele>
        <time>2020-07-26T10:09:32Z</time>
      </trkpt>
      <trkpt lat="45.12874" lon="3.99434">
        <ele>690.36</ele>
        <time>2020-07-26T10:09:46Z</time>
      </trkpt>
      <trkpt lat="45.12885" lon="3.99406">
        <ele>689.4</ele>
        <time>2020-07-26T10:10:02Z</time>
      </trkpt>
      <trkpt lat="45.12899" lon="3.9938">
        <ele>688.44</ele>
        <time>2020-07-26T10:10:19Z</time>
      </trkpt>
      <trkpt lat="45.1291" lon="3.99363">
        <ele>687.48</ele>
        <time>2020-07-26T10:10:33Z</time>
      </trkpt>
      <trkpt lat="45.12928" lon="3.99346">
        <ele>687</ele>
        <time>2020-07-26T10:10:46Z</time>
      </trkpt>
      <trkpt lat="45.12945" lon="3.99331">
        <ele>686.52</ele>
        <time>2020-07-26T10:11:03Z</time>
      </trkpt>
      <trkpt lat="45.12959" lon="3.99315">
        <ele>686.04</ele>
        <time>2020-07-26T10:11:16Z</time>
      </trkpt>
      <trkpt lat="45.12976" lon="3.99293">
        <ele>685.08</ele>
        <time>2020-07-26T10:11:31Z</time>
      </trkpt>
      <trkpt lat="45.12989" lon="3.99274">
        <ele>684.12</ele>
        <time>2020-07-26T10:11:46Z</time>
      </trkpt>
      <trkpt lat="45.12995" lon="3.99266">
        <ele>683.63</ele>
        <time>2020-07-26T10:11:54Z</time>
      </trkpt>
      <trkpt lat="45.12997" lon="3.99262">
        <ele>683.63</ele>
        <time>2020-07-26T10:11:56Z</time>
      </trkpt>
      <trkpt lat="45.13008" lon="3.99246">
        <ele>683.63</ele>
        <time>2020-07-26T10:12:07Z</time>
      </trkpt>
      <trkpt lat="45.13009" lon="3.99245">
        <ele>683.63</ele>
        <time>2020-07-26T10:12:08Z</time>
      </trkpt>
      <trkpt lat="45.13024" lon="3.99231">
        <ele>683.15</ele>
        <time>2020-07-26T10:12:20Z</time>
      </trkpt>
      <trkpt lat="45.13027" lon="3.9923">
        <ele>682.67</ele>
        <time>2020-07-26T10:12:25Z</time>
      </trkpt>
      <trkpt lat="45.13029" lon="3.99229">
        <ele>682.19</ele>
        <time>2020-07-26T10:12:26Z</time>
      </trkpt>
      <trkpt lat="45.1303" lon="3.99228">
        <ele>682.19</ele>
        <time>2020-07-26T10:12:27Z</time>
      </trkpt>
      <trkpt lat="45.13032" lon="3.99227">
        <ele>682.19</ele>
        <time>2020-07-26T10:12:28Z</time>
      </trkpt>
      <trkpt lat="45.13033" lon="3.99227">
        <ele>682.19</ele>
        <time>2020-07-26T10:12:29Z</time>
      </trkpt>
      <trkpt lat="45.1304" lon="3.99223">
        <ele>681.23</ele>
        <time>2020-07-26T10:12:37Z</time>
      </trkpt>
      <trkpt lat="45.13057" lon="3.99215">
        <ele>681.23</ele>
        <time>2020-07-26T10:12:52Z</time>
      </trkpt>
      <trkpt lat="45.13072" lon="3.99211">
        <ele>680.75</ele>
        <time>2020-07-26T10:13:05Z</time>
      </trkpt>
      <trkpt lat="45.13081" lon="3.99208">
        <ele>680.75</ele>
        <time>2020-07-26T10:13:21Z</time>
      </trkpt>
      <trkpt lat="45.13082" lon="3.99199">
        <ele>679.79</ele>
        <time>2020-07-26T10:13:27Z</time>
      </trkpt>
      <trkpt lat="45.13082" lon="3.99197">
        <ele>680.27</ele>
        <time>2020-07-26T10:13:28Z</time>
      </trkpt>
      <trkpt lat="45.13083" lon="3.99173">
        <ele>676.91</ele>
        <time>2020-07-26T10:13:38Z</time>
      </trkpt>
      <trkpt lat="45.13086" lon="3.9917">
        <ele>674.98</ele>
        <time>2020-07-26T10:13:45Z</time>
      </trkpt>
      <trkpt lat="45.13086" lon="3.99168">
        <ele>674.98</ele>
        <time>2020-07-26T10:13:46Z</time>
      </trkpt>
      <trkpt lat="45.13086" lon="3.99156">
        <ele>672.58</ele>
        <time>2020-07-26T10:13:52Z</time>
      </trkpt>
      <trkpt lat="45.13086" lon="3.99154">
        <ele>676.42</ele>
        <time>2020-07-26T10:13:53Z</time>
      </trkpt>
      <trkpt lat="45.13086" lon="3.99153">
        <ele>673.06</ele>
        <time>2020-07-26T10:13:54Z</time>
      </trkpt>
      <trkpt lat="45.13088" lon="3.9914">
        <ele>671.62</ele>
        <time>2020-07-26T10:14:06Z</time>
      </trkpt>
      <trkpt lat="45.13092" lon="3.99121">
        <ele>670.66</ele>
        <time>2020-07-26T10:14:17Z</time>
      </trkpt>
      <trkpt lat="45.13094" lon="3.99098">
        <ele>668.73</ele>
        <time>2020-07-26T10:14:29Z</time>
      </trkpt>
      <trkpt lat="45.13094" lon="3.99079">
        <ele>666.81</ele>
        <time>2020-07-26T10:14:41Z</time>
      </trkpt>
      <trkpt lat="45.13092" lon="3.99055">
        <ele>665.85</ele>
        <time>2020-07-26T10:14:52Z</time>
      </trkpt>
      <trkpt lat="45.13093" lon="3.99034">
        <ele>664.89</ele>
        <time>2020-07-26T10:15:04Z</time>
      </trkpt>
      <trkpt lat="45.13093" lon="3.99033">
        <ele>664.41</ele>
        <time>2020-07-26T10:15:05Z</time>
      </trkpt>
      <trkpt lat="45.13093" lon="3.99031">
        <ele>663.93</ele>
        <time>2020-07-26T10:15:07Z</time>
      </trkpt>
      <trkpt lat="45.13096" lon="3.99011">
        <ele>662.97</ele>
        <time>2020-07-26T10:15:20Z</time>
      </trkpt>
      <trkpt lat="45.13097" lon="3.98984">
        <ele>663.45</ele>
        <time>2020-07-26T10:15:33Z</time>
      </trkpt>
      <trkpt lat="45.13098" lon="3.98964">
        <ele>662.49</ele>
        <time>2020-07-26T10:15:44Z</time>
      </trkpt>
      <trkpt lat="45.13098" lon="3.98962">
        <ele>662.49</ele>
        <time>2020-07-26T10:15:45Z</time>
      </trkpt>
      <trkpt lat="45.13099" lon="3.98961">
        <ele>662.01</ele>
        <time>2020-07-26T10:15:46Z</time>
      </trkpt>
      <trkpt lat="45.131" lon="3.9896">
        <ele>661.52</ele>
        <time>2020-07-26T10:15:47Z</time>
      </trkpt>
      <trkpt lat="45.13102" lon="3.9896">
        <ele>662.01</ele>
        <time>2020-07-26T10:15:48Z</time>
      </trkpt>
      <trkpt lat="45.13103" lon="3.9896">
        <ele>662.49</ele>
        <time>2020-07-26T10:15:49Z</time>
      </trkpt>
      <trkpt lat="45.13104" lon="3.9896">
        <ele>662.01</ele>
        <time>2020-07-26T10:15:50Z</time>
      </trkpt>
      <trkpt lat="45.13107" lon="3.98959">
        <ele>661.52</ele>
        <time>2020-07-26T10:16:26Z</time>
      </trkpt>
      <trkpt lat="45.13106" lon="3.98957">
        <ele>661.52</ele>
        <time>2020-07-26T10:16:29Z</time>
      </trkpt>
      <trkpt lat="45.13098" lon="3.98935">
        <ele>660.56</ele>
        <time>2020-07-26T10:16:42Z</time>
      </trkpt>
      <trkpt lat="45.13094" lon="3.9892">
        <ele>660.08</ele>
        <time>2020-07-26T10:16:49Z</time>
      </trkpt>
      <trkpt lat="45.13094" lon="3.98918">
        <ele>660.08</ele>
        <time>2020-07-26T10:16:51Z</time>
      </trkpt>
      <trkpt lat="45.13093" lon="3.98913">
        <ele>660.08</ele>
        <time>2020-07-26T10:16:54Z</time>
      </trkpt>
      <trkpt lat="45.13092" lon="3.98911">
        <ele>659.6</ele>
        <time>2020-07-26T10:16:55Z</time>
      </trkpt>
      <trkpt lat="45.13091" lon="3.98909">
        <ele>659.6</ele>
        <time>2020-07-26T10:16:56Z</time>
      </trkpt>
      <trkpt lat="45.1309" lon="3.98907">
        <ele>659.12</ele>
        <time>2020-07-26T10:16:57Z</time>
      </trkpt>
      <trkpt lat="45.1309" lon="3.98905">
        <ele>659.6</ele>
        <time>2020-07-26T10:16:58Z</time>
      </trkpt>
      <trkpt lat="45.13089" lon="3.98902">
        <ele>658.64</ele>
        <time>2020-07-26T10:16:59Z</time>
      </trkpt>
      <trkpt lat="45.13089" lon="3.9888">
        <ele>659.12</ele>
        <time>2020-07-26T10:17:11Z</time>
      </trkpt>
      <trkpt lat="45.13092" lon="3.98865">
        <ele>658.16</ele>
        <time>2020-07-26T10:17:19Z</time>
      </trkpt>
      <trkpt lat="45.13107" lon="3.98859">
        <ele>658.64</ele>
        <time>2020-07-26T10:17:31Z</time>
      </trkpt>
      <trkpt lat="45.13127" lon="3.9885">
        <ele>658.16</ele>
        <time>2020-07-26T10:17:47Z</time>
      </trkpt>
      <trkpt lat="45.13139" lon="3.98844">
        <ele>658.64</ele>
        <time>2020-07-26T10:17:56Z</time>
      </trkpt>
      <trkpt lat="45.1314" lon="3.98843">
        <ele>658.16</ele>
        <time>2020-07-26T10:17:57Z</time>
      </trkpt>
      <trkpt lat="45.13141" lon="3.98842">
        <ele>658.16</ele>
        <time>2020-07-26T10:17:58Z</time>
      </trkpt>
      <trkpt lat="45.13142" lon="3.98842">
        <ele>658.16</ele>
        <time>2020-07-26T10:17:59Z</time>
      </trkpt>
      <trkpt lat="45.13144" lon="3.98841">
        <ele>658.64</ele>
        <time>2020-07-26T10:18:00Z</time>
      </trkpt>
      <trkpt lat="45.13155" lon="3.98837">
        <ele>658.16</ele>
        <time>2020-07-26T10:18:10Z</time>
      </trkpt>
      <trkpt lat="45.13159" lon="3.98837">
        <ele>657.68</ele>
        <time>2020-07-26T10:18:12Z</time>
      </trkpt>
      <trkpt lat="45.13164" lon="3.98834">
        <ele>658.16</ele>
        <time>2020-07-26T10:18:18Z</time>
      </trkpt>
      <trkpt lat="45.13165" lon="3.98834">
        <ele>657.68</ele>
        <time>2020-07-26T10:18:19Z</time>
      </trkpt>
      <trkpt lat="45.13184" lon="3.98822">
        <ele>658.16</ele>
        <time>2020-07-26T10:18:34Z</time>
      </trkpt>
      <trkpt lat="45.13186" lon="3.9882">
        <ele>658.16</ele>
        <time>2020-07-26T10:18:36Z</time>
      </trkpt>
      <trkpt lat="45.13188" lon="3.98819">
        <ele>658.16</ele>
        <time>2020-07-26T10:18:37Z</time>
      </trkpt>
      <trkpt lat="45.1319" lon="3.98818">
        <ele>657.68</ele>
        <time>2020-07-26T10:18:38Z</time>
      </trkpt>
      <trkpt lat="45.13191" lon="3.98818">
        <ele>658.16</ele>
        <time>2020-07-26T10:18:39Z</time>
      </trkpt>
      <trkpt lat="45.13192" lon="3.98817">
        <ele>657.68</ele>
        <time>2020-07-26T10:18:40Z</time>
      </trkpt>
      <trkpt lat="45.13194" lon="3.98816">
        <ele>657.68</ele>
        <time>2020-07-26T10:18:41Z</time>
      </trkpt>
      <trkpt lat="45.13195" lon="3.98815">
        <ele>657.68</ele>
        <time>2020-07-26T10:18:42Z</time>
      </trkpt>
      <trkpt lat="45.13197" lon="3.98815">
        <ele>657.68</ele>
        <time>2020-07-26T10:18:43Z</time>
      </trkpt>
      <trkpt lat="45.13198" lon="3.98814">
        <ele>658.16</ele>
        <time>2020-07-26T10:18:44Z</time>
      </trkpt>
      <trkpt lat="45.13199" lon="3.98814">
        <ele>657.2</ele>
        <time>2020-07-26T10:18:45Z</time>
      </trkpt>
      <trkpt lat="45.132" lon="3.98814">
        <ele>657.2</ele>
        <time>2020-07-26T10:18:46Z</time>
      </trkpt>
      <trkpt lat="45.13202" lon="3.98814">
        <ele>657.68</ele>
        <time>2020-07-26T10:18:47Z</time>
      </trkpt>
      <trkpt lat="45.13203" lon="3.98813">
        <ele>657.68</ele>
        <time>2020-07-26T10:18:48Z</time>
      </trkpt>
      <trkpt lat="45.13206" lon="3.98813">
        <ele>657.68</ele>
        <time>2020-07-26T10:18:51Z</time>
      </trkpt>
      <trkpt lat="45.13208" lon="3.98813">
        <ele>657.2</ele>
        <time>2020-07-26T10:18:52Z</time>
      </trkpt>
      <trkpt lat="45.13225" lon="3.98805">
        <ele>657.68</ele>
        <time>2020-07-26T10:19:06Z</time>
      </trkpt>
      <trkpt lat="45.13239" lon="3.98797">
        <ele>658.64</ele>
        <time>2020-07-26T10:19:19Z</time>
      </trkpt>
      <trkpt lat="45.13249" lon="3.98782">
        <ele>659.6</ele>
        <time>2020-07-26T10:19:32Z</time>
      </trkpt>
      <trkpt lat="45.13254" lon="3.98779">
        <ele>660.56</ele>
        <time>2020-07-26T10:19:39Z</time>
      </trkpt>
      <trkpt lat="45.13255" lon="3.98766">
        <ele>659.6</ele>
        <time>2020-07-26T10:19:47Z</time>
      </trkpt>
      <trkpt lat="45.13255" lon="3.98765">
        <ele>660.08</ele>
        <time>2020-07-26T10:19:48Z</time>
      </trkpt>
      <trkpt lat="45.13256" lon="3.9874">
        <ele>659.6</ele>
        <time>2020-07-26T10:20:02Z</time>
      </trkpt>
      <trkpt lat="45.13257" lon="3.98724">
        <ele>659.6</ele>
        <time>2020-07-26T10:20:09Z</time>
      </trkpt>
      <trkpt lat="45.1325" lon="3.98713">
        <ele>658.64</ele>
        <time>2020-07-26T10:20:24Z</time>
      </trkpt>
      <trkpt lat="45.1325" lon="3.98719">
        <ele>659.6</ele>
        <time>2020-07-26T10:20:35Z</time>
      </trkpt>
      <trkpt lat="45.13251" lon="3.98721">
        <ele>659.12</ele>
        <time>2020-07-26T10:20:36Z</time>
      </trkpt>
      <trkpt lat="45.13252" lon="3.98724">
        <ele>659.12</ele>
        <time>2020-07-26T10:20:37Z</time>
      </trkpt>
      <trkpt lat="45.1326" lon="3.9876">
        <ele>660.08</ele>
        <time>2020-07-26T10:20:52Z</time>
      </trkpt>
      <trkpt lat="45.1326" lon="3.98781">
        <ele>660.56</ele>
        <time>2020-07-26T10:21:05Z</time>
      </trkpt>
      <trkpt lat="45.13262" lon="3.98795">
        <ele>660.08</ele>
        <time>2020-07-26T10:21:16Z</time>
      </trkpt>
      <trkpt lat="45.13268" lon="3.98813">
        <ele>661.04</ele>
        <time>2020-07-26T10:21:27Z</time>
      </trkpt>
      <trkpt lat="45.1327" lon="3.98815">
        <ele>661.04</ele>
        <time>2020-07-26T10:21:28Z</time>
      </trkpt>
      <trkpt lat="45.13271" lon="3.98816">
        <ele>661.04</ele>
        <time>2020-07-26T10:21:29Z</time>
      </trkpt>
      <trkpt lat="45.13272" lon="3.98818">
        <ele>661.04</ele>
        <time>2020-07-26T10:21:30Z</time>
      </trkpt>
      <trkpt lat="45.13273" lon="3.9882">
        <ele>661.52</ele>
        <time>2020-07-26T10:21:31Z</time>
      </trkpt>
      <trkpt lat="45.13274" lon="3.98822">
        <ele>661.52</ele>
        <time>2020-07-26T10:21:32Z</time>
      </trkpt>
      <trkpt lat="45.13275" lon="3.98823">
        <ele>661.52</ele>
        <time>2020-07-26T10:21:33Z</time>
      </trkpt>
      <trkpt lat="45.13281" lon="3.98837">
        <ele>661.52</ele>
        <time>2020-07-26T10:21:44Z</time>
      </trkpt>
      <trkpt lat="45.13284" lon="3.9884">
        <ele>662.01</ele>
        <time>2020-07-26T10:21:47Z</time>
      </trkpt>
      <trkpt lat="45.13284" lon="3.98843">
        <ele>661.04</ele>
        <time>2020-07-26T10:21:48Z</time>
      </trkpt>
      <trkpt lat="45.13284" lon="3.98846">
        <ele>661.52</ele>
        <time>2020-07-26T10:21:49Z</time>
      </trkpt>
      <trkpt lat="45.13282" lon="3.98849">
        <ele>661.52</ele>
        <time>2020-07-26T10:21:50Z</time>
      </trkpt>
      <trkpt lat="45.13282" lon="3.98852">
        <ele>661.52</ele>
        <time>2020-07-26T10:21:51Z</time>
      </trkpt>
      <trkpt lat="45.13282" lon="3.98854">
        <ele>661.04</ele>
        <time>2020-07-26T10:21:52Z</time>
      </trkpt>
      <trkpt lat="45.13283" lon="3.98863">
        <ele>662.01</ele>
        <time>2020-07-26T10:22:02Z</time>
      </trkpt>
      <trkpt lat="45.13284" lon="3.98864">
        <ele>662.01</ele>
        <time>2020-07-26T10:22:03Z</time>
      </trkpt>
      <trkpt lat="45.1329" lon="3.98864">
        <ele>662.49</ele>
        <time>2020-07-26T10:22:10Z</time>
      </trkpt>
      <trkpt lat="45.13292" lon="3.98866">
        <ele>662.49</ele>
        <time>2020-07-26T10:22:11Z</time>
      </trkpt>
      <trkpt lat="45.1331" lon="3.98888">
        <ele>663.45</ele>
        <time>2020-07-26T10:22:28Z</time>
      </trkpt>
      <trkpt lat="45.13317" lon="3.98917">
        <ele>663.93</ele>
        <time>2020-07-26T10:22:43Z</time>
      </trkpt>
      <trkpt lat="45.13319" lon="3.98931">
        <ele>663.45</ele>
        <time>2020-07-26T10:22:53Z</time>
      </trkpt>
      <trkpt lat="45.13321" lon="3.98938">
        <ele>664.41</ele>
        <time>2020-07-26T10:23:04Z</time>
      </trkpt>
      <trkpt lat="45.13319" lon="3.98943">
        <ele>663.45</ele>
        <time>2020-07-26T10:23:08Z</time>
      </trkpt>
      <trkpt lat="45.13314" lon="3.98958">
        <ele>664.89</ele>
        <time>2020-07-26T10:23:19Z</time>
      </trkpt>
      <trkpt lat="45.13309" lon="3.98978">
        <ele>666.33</ele>
        <time>2020-07-26T10:23:34Z</time>
      </trkpt>
      <trkpt lat="45.13308" lon="3.98986">
        <ele>666.81</ele>
        <time>2020-07-26T10:23:39Z</time>
      </trkpt>
      <trkpt lat="45.13308" lon="3.98987">
        <ele>666.33</ele>
        <time>2020-07-26T10:23:40Z</time>
      </trkpt>
      <trkpt lat="45.13307" lon="3.98995">
        <ele>667.29</ele>
        <time>2020-07-26T10:23:44Z</time>
      </trkpt>
      <trkpt lat="45.13306" lon="3.98998">
        <ele>666.81</ele>
        <time>2020-07-26T10:23:45Z</time>
      </trkpt>
      <trkpt lat="45.13305" lon="3.99">
        <ele>666.81</ele>
        <time>2020-07-26T10:23:46Z</time>
      </trkpt>
      <trkpt lat="45.13304" lon="3.99002">
        <ele>667.29</ele>
        <time>2020-07-26T10:23:47Z</time>
      </trkpt>
      <trkpt lat="45.13303" lon="3.99004">
        <ele>666.81</ele>
        <time>2020-07-26T10:23:48Z</time>
      </trkpt>
      <trkpt lat="45.13302" lon="3.99005">
        <ele>667.29</ele>
        <time>2020-07-26T10:23:49Z</time>
      </trkpt>
      <trkpt lat="45.13299" lon="3.99012">
        <ele>666.33</ele>
        <time>2020-07-26T10:23:54Z</time>
      </trkpt>
      <trkpt lat="45.13305" lon="3.99033">
        <ele>667.29</ele>
        <time>2020-07-26T10:24:06Z</time>
      </trkpt>
      <trkpt lat="45.13313" lon="3.99049">
        <ele>668.25</ele>
        <time>2020-07-26T10:24:18Z</time>
      </trkpt>
      <trkpt lat="45.13316" lon="3.99053">
        <ele>668.73</ele>
        <time>2020-07-26T10:24:22Z</time>
      </trkpt>
      <trkpt lat="45.13317" lon="3.99054">
        <ele>667.77</ele>
        <time>2020-07-26T10:24:23Z</time>
      </trkpt>
      <trkpt lat="45.13318" lon="3.99056">
        <ele>668.73</ele>
        <time>2020-07-26T10:24:24Z</time>
      </trkpt>
      <trkpt lat="45.13326" lon="3.99068">
        <ele>668.73</ele>
        <time>2020-07-26T10:24:36Z</time>
      </trkpt>
      <trkpt lat="45.13337" lon="3.99084">
        <ele>670.18</ele>
        <time>2020-07-26T10:24:52Z</time>
      </trkpt>
      <trkpt lat="45.13343" lon="3.991">
        <ele>670.66</ele>
        <time>2020-07-26T10:25:05Z</time>
      </trkpt>
      <trkpt lat="45.13346" lon="3.99108">
        <ele>671.62</ele>
        <time>2020-07-26T10:25:12Z</time>
      </trkpt>
      <trkpt lat="45.13346" lon="3.9911">
        <ele>671.62</ele>
        <time>2020-07-26T10:25:13Z</time>
      </trkpt>
      <trkpt lat="45.1335" lon="3.99116">
        <ele>672.58</ele>
        <time>2020-07-26T10:25:19Z</time>
      </trkpt>
      <trkpt lat="45.13358" lon="3.99124">
        <ele>673.54</ele>
        <time>2020-07-26T10:25:31Z</time>
      </trkpt>
      <trkpt lat="45.13364" lon="3.99129">
        <ele>674.02</ele>
        <time>2020-07-26T10:25:45Z</time>
      </trkpt>
      <trkpt lat="45.13369" lon="3.9913">
        <ele>674.98</ele>
        <time>2020-07-26T10:25:50Z</time>
      </trkpt>
      <trkpt lat="45.13373" lon="3.9913">
        <ele>674.98</ele>
        <time>2020-07-26T10:25:55Z</time>
      </trkpt>
      <trkpt lat="45.13374" lon="3.9913">
        <ele>674.98</ele>
        <time>2020-07-26T10:25:56Z</time>
      </trkpt>
      <trkpt lat="45.13375" lon="3.99131">
        <ele>675.46</ele>
        <time>2020-07-26T10:25:57Z</time>
      </trkpt>
      <trkpt lat="45.13392" lon="3.99143">
        <ele>676.42</ele>
        <time>2020-07-26T10:26:11Z</time>
      </trkpt>
      <trkpt lat="45.13393" lon="3.99149">
        <ele>677.87</ele>
        <time>2020-07-26T10:26:17Z</time>
      </trkpt>
    </trkseg>
  </trk>
</gpx>